Observation data for Palo Duro Canyon State Park Floor on 05/26/2019      Previous  Date  Next       Current Mesonet Observations  Soil Data  Daily Summary Page  Observations in Plain Language
KPD2 260500Z 13007G12KT 22/19 A2994 RMK A01 T02160185  RH  083%=      5-min Rain = 0
KPD2 260501Z 14010KT 22/19 A2994 RMK A01 T02160185  RH  083%=      5-min Rain = 0
KPD2 260502Z 13008KT 22/19 A2994 RMK A01 T02160185  RH  082%=      5-min Rain = 0
KPD2 260503Z 14008KT 22/19 A2994 RMK A01 T02160185  RH  082%=      5-min Rain = 0
KPD2 260504Z 13011KT 22/19 A2994 RMK A01 T02160185  RH  082%=      5-min Rain = 0
KPD2 260505Z 13009KT 22/19 A2994 RMK A01 T02170185  RH  082%=      5-min Rain = 0
KPD2 260506Z 13010KT 22/19 A2994 RMK A01 T02160185  RH  082%=      5-min Rain = 0
KPD2 260507Z 13010KT 22/19 A2994 RMK A01 T02170185  RH  082%=      5-min Rain = 0
KPD2 260508Z 14011KT 22/19 A2994 RMK A01 T02160185  RH  082%=      5-min Rain = 0
KPD2 260509Z 12010KT 22/19 A2994 RMK A01 T02160185  RH  082%=      5-min Rain = 0
KPD2 260510Z 13009G14KT 22/19 A2994 RMK A01 T02160185  RH  082%=      5-min Rain = 0
KPD2 260511Z 14009KT 22/18 A2995 RMK A01 T02150184  RH  082%=      5-min Rain = 0
KPD2 260512Z 13008KT 22/18 A2994 RMK A01 T02150184  RH  082%=      5-min Rain = 0
KPD2 260513Z 15007KT 22/18 A2995 RMK A01 T02160184  RH  082%=      5-min Rain = 0
KPD2 260514Z 13007KT 22/18 A2994 RMK A01 T02150184  RH  083%=      5-min Rain = 0
KPD2 260515Z 13008KT 22/18 A2994 RMK A01 T02150184  RH  083%=      5-min Rain = 0
KPD2 260516Z 13010KT 21/18 A2995 RMK A01 T02140184  RH  083%=      5-min Rain = 0
KPD2 260517Z 14008KT 21/18 A2995 RMK A01 T02140184  RH  083%=      5-min Rain = 0
KPD2 260518Z 13008KT 21/18 A2995 RMK A01 T02140184  RH  083%=      5-min Rain = 0
KPD2 260519Z 13008KT 21/18 A2995 RMK A01 T02140184  RH  083%=      5-min Rain = 0
KPD2 260520Z 12007KT 21/18 A2995 RMK A01 T02130184  RH  083%=      5-min Rain = 0
KPD2 260521Z 12006KT 21/18 A2995 RMK A01 T02120184  RH  084%=      5-min Rain = 0
KPD2 260522Z 15006KT 21/18 A2995 RMK A01 T02110184  RH  084%=      5-min Rain = 0
KPD2 260523Z 14006KT 21/18 A2995 RMK A01 T02100184  RH  085%=      5-min Rain = 0
KPD2 260524Z 14005KT 21/18 A2995 RMK A01 T02090183  RH  085%=      5-min Rain = 0
KPD2 260525Z 14006KT 21/18 A2995 RMK A01 T02090183  RH  085%=      5-min Rain = 0
KPD2 260526Z 15005KT 21/18 A2995 RMK A01 T02080183  RH  086%=      5-min Rain = 0
KPD2 260527Z 14005KT 21/18 A2995 RMK A01 T02070183  RH  086%=      5-min Rain = 0
KPD2 260528Z 14006KT 21/18 A2995 RMK A01 T02070183  RH  086%=      5-min Rain = 0
KPD2 260529Z 12007KT 21/18 A2995 RMK A01 T02060183  RH  086%=      5-min Rain = 0
KPD2 260530Z 13006KT 21/18 A2995 RMK A01 T02060183  RH  087%=      5-min Rain = 0
KPD2 260531Z 14007KT 21/18 A2995 RMK A01 T02050183  RH  087%=      5-min Rain = 0
KPD2 260532Z 14006KT 21/18 A2995 RMK A01 T02050183  RH  087%=      5-min Rain = 0
KPD2 260533Z 14007KT 20/18 A2995 RMK A01 T02040183  RH  088%=      5-min Rain = 0
KPD2 260534Z 13005KT 20/18 A2995 RMK A01 T02040183  RH  088%=      5-min Rain = 0
KPD2 260535Z 13005KT 20/18 A2995 RMK A01 T02040183  RH  088%=      5-min Rain = 0
KPD2 260536Z 13005KT 20/18 A2995 RMK A01 T02030183  RH  088%=      5-min Rain = 0
KPD2 260537Z 13005KT 20/18 A2995 RMK A01 T02030183  RH  088%=      5-min Rain = 0
KPD2 260538Z 13005KT 20/18 A2995 RMK A01 T02020183  RH  088%=      5-min Rain = 0
KPD2 260539Z 13005KT 20/18 A2996 RMK A01 T02020182  RH  089%=      5-min Rain = 0
KPD2 260540Z 13005KT 20/18 A2996 RMK A01 T02010182  RH  089%=      5-min Rain = 0
KPD2 260541Z 13005KT 20/18 A2996 RMK A01 T02010183  RH  089%=      5-min Rain = 0
KPD2 260542Z 13005KT 20/18 A2996 RMK A01 T02010182  RH  089%=      5-min Rain = 0
KPD2 260543Z 13006KT 20/18 A2996 RMK A01 T02000182  RH  089%=      5-min Rain = 0
KPD2 260544Z 13005KT 20/18 A2996 RMK A01 T01990182  RH  090%=      5-min Rain = 0
KPD2 260545Z 13006KT 20/18 A2996 RMK A01 T01990182  RH  090%=      5-min Rain = 0
KPD2 260546Z 13006KT 20/18 A2996 RMK A01 T01980181  RH  090%=      5-min Rain = 0
KPD2 260547Z 13006KT 20/18 A2996 RMK A01 T01980181  RH  090%=      5-min Rain = 0
KPD2 260548Z 13006KT 20/18 A2996 RMK A01 T01980182  RH  090%=      5-min Rain = 0
KPD2 260549Z 13007KT 20/18 A2996 RMK A01 T01970181  RH  091%=      5-min Rain = 0
KPD2 260550Z 13007KT 20/18 A2996 RMK A01 T01970182  RH  091%=      5-min Rain = 0
KPD2 260551Z 13007KT 20/18 A2996 RMK A01 T01970181  RH  091%=      5-min Rain = 0
KPD2 260552Z 13006KT 20/18 A2995 RMK A01 T01960181  RH  091%=      5-min Rain = 0
KPD2 260553Z 13007KT 20/18 A2995 RMK A01 T01960181  RH  091%=      5-min Rain = 0
KPD2 260554Z 13007KT 20/18 A2995 RMK A01 T01960182  RH  091%=      5-min Rain = 0
KPD2 260555Z 13007KT 20/18 A2996 RMK A01 T01960181  RH  091%=      5-min Rain = 0
KPD2 260556Z 13007KT 20/18 A2996 RMK A01 T01960181  RH  091%=      5-min Rain = 0
KPD2 260557Z 13007KT 20/18 A2996 RMK A01 T01960181  RH  091%=      5-min Rain = 0
KPD2 260558Z 13006KT 20/18 A2995 RMK A01 T01960181  RH  091%=      5-min Rain = 0
KPD2 260559Z 13006KT 20/18 A2995 RMK A01 T01960181  RH  092%=      5-min Rain = 0
KPD2 260600Z 13007KT 20/18 A2995 RMK A01 T01950181  RH  092%=      5-min Rain = 0
KPD2 260601Z 14007KT 20/18 A2995 RMK A01 T01950181  RH  092%=      5-min Rain = 0
KPD2 260602Z 14007KT 20/18 A2995 RMK A01 T01950181  RH  092%=      5-min Rain = 0
KPD2 260603Z 12007KT 20/18 A2995 RMK A01 T01950181  RH  091%=      5-min Rain = 0
KPD2 260604Z 13006KT 20/18 A2995 RMK A01 T01950181  RH  091%=      5-min Rain = 0
KPD2 260605Z 14005KT 20/18 A2995 RMK A01 T01950181  RH  092%=      5-min Rain = 0
KPD2 260606Z 14006KT 20/18 A2996 RMK A01 T01950181  RH  092%=      5-min Rain = 0
KPD2 260607Z 13006KT 20/18 A2996 RMK A01 T01950181  RH  092%=      5-min Rain = 0
KPD2 260608Z 12005KT 20/18 A2996 RMK A01 T01950181  RH  091%=      5-min Rain = 0
KPD2 260609Z 10003KT 20/18 A2996 RMK A01 T01950181  RH  091%=      5-min Rain = 0
KPD2 260610Z 12004KT 20/18 A2996 RMK A01 T01950181  RH  091%=      5-min Rain = 0
KPD2 260611Z 14002KT 20/18 A2996 RMK A01 T01950180  RH  091%=      5-min Rain = 0
KPD2 260612Z 15003KT 19/18 A2996 RMK A01 T01940180  RH  092%=      5-min Rain = 0
KPD2 260613Z 15001KT 19/18 A2996 RMK A01 T01940180  RH  092%=      5-min Rain = 0
KPD2 260614Z 18002KT 19/18 A2996 RMK A01 T01940180  RH  092%=      5-min Rain = 0
KPD2 260615Z 16004KT 19/18 A2996 RMK A01 T01930180  RH  092%=      5-min Rain = 0
KPD2 260616Z 15004KT 19/18 A2996 RMK A01 T01940180  RH  092%=      5-min Rain = 0
KPD2 260617Z 14004KT 19/18 A2996 RMK A01 T01940180  RH  092%=      5-min Rain = 0
KPD2 260618Z 14006KT 19/18 A2996 RMK A01 T01930180  RH  092%=      5-min Rain = 0
KPD2 260619Z 13006KT 19/18 A2996 RMK A01 T01930180  RH  092%=      5-min Rain = 0
KPD2 260620Z 13005KT 19/18 A2996 RMK A01 T01930180  RH  092%=      5-min Rain = 0
KPD2 260621Z 12005KT 19/18 A2996 RMK A01 T01930179  RH  092%=      5-min Rain = 0
KPD2 260622Z 12004KT 19/18 A2996 RMK A01 T01930179  RH  092%=      5-min Rain = 0
KPD2 260623Z 12004KT 19/18 A2996 RMK A01 T01920179  RH  092%=      5-min Rain = 0
KPD2 260624Z 13005KT 19/18 A2996 RMK A01 T01920179  RH  092%=      5-min Rain = 0
KPD2 260625Z 12005KT 19/18 A2996 RMK A01 T01920179  RH  092%=      5-min Rain = 0
KPD2 260626Z 12005KT 19/18 A2996 RMK A01 T01910179  RH  092%=      5-min Rain = 0
KPD2 260627Z 12005KT 19/18 A2996 RMK A01 T01910178  RH  092%=      5-min Rain = 0
KPD2 260628Z 12005KT 19/18 A2996 RMK A01 T01910179  RH  093%=      5-min Rain = 0
KPD2 260629Z 12004KT 19/18 A2996 RMK A01 T01910178  RH  093%=      5-min Rain = 0
KPD2 260630Z 12003KT 19/18 A2996 RMK A01 T01900178  RH  093%=      5-min Rain = 0
KPD2 260631Z 13005KT 19/18 A2996 RMK A01 T01900178  RH  093%=      5-min Rain = 0
KPD2 260632Z 12005KT 19/18 A2996 RMK A01 T01900178  RH  093%=      5-min Rain = 0
KPD2 260633Z 12004KT 19/18 A2996 RMK A01 T01900178  RH  093%=      5-min Rain = 0
KPD2 260634Z 12005KT 19/18 A2996 RMK A01 T01900178  RH  093%=      5-min Rain = 0
KPD2 260635Z 13004KT 19/18 A2996 RMK A01 T01900178  RH  093%=      5-min Rain = 0
KPD2 260636Z 13005KT 19/18 A2996 RMK A01 T01890178  RH  093%=      5-min Rain = 0
KPD2 260637Z 12005KT 19/18 A2996 RMK A01 T01890178  RH  093%=      5-min Rain = 0
KPD2 260638Z 13005KT 19/18 A2996 RMK A01 T01890178  RH  093%=      5-min Rain = 0
KPD2 260639Z 13006KT 19/18 A2996 RMK A01 T01890178  RH  093%=      5-min Rain = 0
KPD2 260640Z 12006KT 19/18 A2996 RMK A01 T01890178  RH  093%=      5-min Rain = 0
KPD2 260641Z 13005KT 19/18 A2996 RMK A01 T01890178  RH  093%=      5-min Rain = 0
KPD2 260642Z 13005KT 19/18 A2996 RMK A01 T01890177  RH  093%=      5-min Rain = 0
KPD2 260643Z 13005KT 19/18 A2996 RMK A01 T01890178  RH  093%=      5-min Rain = 0
KPD2 260644Z 13005KT 19/18 A2996 RMK A01 T01890177  RH  093%=      5-min Rain = 0
KPD2 260645Z 13005KT 19/18 A2996 RMK A01 T01890177  RH  093%=      5-min Rain = 0
KPD2 260646Z 12005KT 19/18 A2996 RMK A01 T01880177  RH  093%=      5-min Rain = 0
KPD2 260647Z 13005KT 19/18 A2996 RMK A01 T01880177  RH  093%=      5-min Rain = 0
KPD2 260648Z 13004KT 19/18 A2996 RMK A01 T01880177  RH  093%=      5-min Rain = 0
KPD2 260649Z 12005KT 19/18 A2996 RMK A01 T01880177  RH  093%=      5-min Rain = 0
KPD2 260650Z 13005KT 19/18 A2996 RMK A01 T01870177  RH  093%=      5-min Rain = 0
KPD2 260651Z 13005KT 19/18 A2996 RMK A01 T01870176  RH  094%=      5-min Rain = 0
KPD2 260652Z 13005KT 19/18 A2996 RMK A01 T01870176  RH  094%=      5-min Rain = 0
KPD2 260653Z 12005KT 19/18 A2996 RMK A01 T01860176  RH  094%=      5-min Rain = 0
KPD2 260654Z 12005KT 19/18 A2996 RMK A01 T01860176  RH  094%=      5-min Rain = 0
KPD2 260655Z 13005KT 19/18 A2996 RMK A01 T01860176  RH  094%=      5-min Rain = 0
KPD2 260656Z 13004KT 19/18 A2996 RMK A01 T01860176  RH  094%=      5-min Rain = 0
KPD2 260657Z 13004KT 19/18 A2996 RMK A01 T01850175  RH  094%=      5-min Rain = 0
KPD2 260658Z 13004KT 19/18 A2996 RMK A01 T01850175  RH  094%=      5-min Rain = 0
KPD2 260659Z 13004KT 19/18 A2996 RMK A01 T01850175  RH  094%=      5-min Rain = 0
KPD2 260700Z 13005KT 18/18 A2996 RMK A01 T01840175  RH  094%=      5-min Rain = 0
KPD2 260701Z 13005KT 18/17 A2996 RMK A01 T01840174  RH  094%=      5-min Rain = 0
KPD2 260702Z 13005KT 18/17 A2996 RMK A01 T01840174  RH  094%=      5-min Rain = 0
KPD2 260703Z 13004KT 18/17 A2996 RMK A01 T01840174  RH  094%=      5-min Rain = 0
KPD2 260704Z 13005KT 18/17 A2996 RMK A01 T01830174  RH  094%=      5-min Rain = 0
KPD2 260705Z 13005KT 18/17 A2996 RMK A01 T01830174  RH  094%=      5-min Rain = 0
KPD2 260706Z 13005KT 18/17 A2996 RMK A01 T01830174  RH  094%=      5-min Rain = 0
KPD2 260707Z 13005KT 18/17 A2996 RMK A01 T01830174  RH  094%=      5-min Rain = 0
KPD2 260708Z 14005KT 18/17 A2996 RMK A01 T01830174  RH  094%=      5-min Rain = 0
KPD2 260709Z 14005KT 18/17 A2996 RMK A01 T01830173  RH  094%=      5-min Rain = 0
KPD2 260710Z 13005KT 18/17 A2996 RMK A01 T01830174  RH  094%=      5-min Rain = 0
KPD2 260711Z 13005KT 18/17 A2996 RMK A01 T01830174  RH  094%=      5-min Rain = 0
KPD2 260712Z 13005KT 18/17 A2996 RMK A01 T01830173  RH  094%=      5-min Rain = 0
KPD2 260713Z 13005KT 18/17 A2996 RMK A01 T01820173  RH  094%=      5-min Rain = 0
KPD2 260714Z 12005KT 18/17 A2996 RMK A01 T01820173  RH  094%=      5-min Rain = 0
KPD2 260715Z 13004KT 18/17 A2996 RMK A01 T01820173  RH  094%=      5-min Rain = 0
KPD2 260716Z 12004KT 18/17 A2996 RMK A01 T01820172  RH  094%=      5-min Rain = 0
KPD2 260717Z 13004KT 18/17 A2996 RMK A01 T01820173  RH  094%=      5-min Rain = 0
KPD2 260718Z 12004KT 18/17 A2996 RMK A01 T01810172  RH  094%=      5-min Rain = 0
KPD2 260719Z 12004KT 18/17 A2996 RMK A01 T01810172  RH  094%=      5-min Rain = 0
KPD2 260720Z 12003KT 18/17 A2996 RMK A01 T01810172  RH  094%=      5-min Rain = 0
KPD2 260721Z 13003KT 18/17 A2996 RMK A01 T01800171  RH  094%=      5-min Rain = 0
KPD2 260722Z 13003KT 18/17 A2996 RMK A01 T01800172  RH  095%=      5-min Rain = 0
KPD2 260723Z 12003KT 18/17 A2996 RMK A01 T01800172  RH  095%=      5-min Rain = 0
KPD2 260724Z 12004KT 18/17 A2996 RMK A01 T01800171  RH  095%=      5-min Rain = 0
KPD2 260725Z 12004KT 18/17 A2996 RMK A01 T01800171  RH  095%=      5-min Rain = 0
KPD2 260726Z 12004KT 18/17 A2996 RMK A01 T01800172  RH  095%=      5-min Rain = 0
KPD2 260727Z 12004KT 18/17 A2997 RMK A01 T01800172  RH  095%=      5-min Rain = 0
KPD2 260728Z 12004KT 18/17 A2997 RMK A01 T01810172  RH  095%=      5-min Rain = 0
KPD2 260729Z 12004KT 18/17 A2997 RMK A01 T01810172  RH  095%=      5-min Rain = 0
KPD2 260730Z 11004KT 18/17 A2997 RMK A01 T01810172  RH  095%=      5-min Rain = 0
KPD2 260731Z 12004KT 18/17 A2997 RMK A01 T01810172  RH  095%=      5-min Rain = 0
KPD2 260732Z 12003KT 18/17 A2997 RMK A01 T01810172  RH  095%=      5-min Rain = 0
KPD2 260733Z 13003KT 18/17 A2997 RMK A01 T01810172  RH  095%=      5-min Rain = 0
KPD2 260734Z 12004KT 18/17 A2997 RMK A01 T01810172  RH  094%=      5-min Rain = 0
KPD2 260735Z 11004KT 18/17 A2997 RMK A01 T01810172  RH  094%=      5-min Rain = 0
KPD2 260736Z 12004KT 18/17 A2997 RMK A01 T01810172  RH  094%=      5-min Rain = 0
KPD2 260737Z 12003KT 18/17 A2997 RMK A01 T01810172  RH  094%=      5-min Rain = 0
KPD2 260738Z 13004KT 18/17 A2997 RMK A01 T01810172  RH  094%=      5-min Rain = 0
KPD2 260739Z 13004KT 18/17 A2997 RMK A01 T01810172  RH  094%=      5-min Rain = 0
KPD2 260740Z 11004KT 18/17 A2997 RMK A01 T01810172  RH  094%=      5-min Rain = 0
KPD2 260741Z 11003KT 18/17 A2997 RMK A01 T01810172  RH  094%=      5-min Rain = 0
KPD2 260742Z 12003KT 18/17 A2997 RMK A01 T01800171  RH  094%=      5-min Rain = 0
KPD2 260743Z 12003KT 18/17 A2997 RMK A01 T01800171  RH  094%=      5-min Rain = 0
KPD2 260744Z 11003KT 18/17 A2997 RMK A01 T01800171  RH  094%=      5-min Rain = 0
KPD2 260745Z 10004KT 18/17 A2997 RMK A01 T01800171  RH  094%=      5-min Rain = 0
KPD2 260746Z 11005KT 18/17 A2997 RMK A01 T01800171  RH  094%=      5-min Rain = 0
KPD2 260747Z 12005KT 18/17 A2997 RMK A01 T01800171  RH  094%=      5-min Rain = 0
KPD2 260748Z 13005KT 18/17 A2997 RMK A01 T01810171  RH  094%=      5-min Rain = 0
KPD2 260749Z 13004KT 18/17 A2997 RMK A01 T01800171  RH  094%=      5-min Rain = 0
KPD2 260750Z 12004KT 18/17 A2997 RMK A01 T01800171  RH  094%=      5-min Rain = 0
KPD2 260751Z 12003KT 18/17 A2997 RMK A01 T01810171  RH  094%=      5-min Rain = 0
KPD2 260752Z 12003KT 18/17 A2997 RMK A01 T01800171  RH  094%=      5-min Rain = 0
KPD2 260753Z 13004KT 18/17 A2997 RMK A01 T01800171  RH  094%=      5-min Rain = 0
KPD2 260754Z 11004KT 18/17 A2997 RMK A01 T01800171  RH  094%=      5-min Rain = 0
KPD2 260755Z 12004KT 18/17 A2997 RMK A01 T01800170  RH  094%=      5-min Rain = 0
KPD2 260756Z 11003KT 18/17 A2997 RMK A01 T01790170  RH  094%=      5-min Rain = 0
KPD2 260757Z 12005KT 18/17 A2997 RMK A01 T01800170  RH  094%=      5-min Rain = 0
KPD2 260758Z 12004KT 18/17 A2997 RMK A01 T01790170  RH  094%=      5-min Rain = 0
KPD2 260759Z 13004KT 18/17 A2997 RMK A01 T01790170  RH  095%=      5-min Rain = 0
KPD2 260800Z 13005KT 18/17 A2997 RMK A01 T01790170  RH  095%=      5-min Rain = 0
KPD2 260801Z 12004KT 18/17 A2997 RMK A01 T01790170  RH  095%=      5-min Rain = 0
KPD2 260802Z 12004KT 18/17 A2997 RMK A01 T01790170  RH  095%=      5-min Rain = 0
KPD2 260803Z 12004KT 18/17 A2997 RMK A01 T01790170  RH  095%=      5-min Rain = 0
KPD2 260804Z 12004KT 18/17 A2997 RMK A01 T01780170  RH  095%=      5-min Rain = 0
KPD2 260805Z 12003KT 18/17 A2997 RMK A01 T01780169  RH  095%=      5-min Rain = 0
KPD2 260806Z 11004KT 18/17 A2997 RMK A01 T01780169  RH  095%=      5-min Rain = 0
KPD2 260807Z 12005KT 18/17 A2997 RMK A01 T01780170  RH  095%=      5-min Rain = 0
KPD2 260808Z 12004KT 18/17 A2997 RMK A01 T01780170  RH  095%=      5-min Rain = 0
KPD2 260809Z 12004KT 18/17 A2997 RMK A01 T01780169  RH  095%=      5-min Rain = 0
KPD2 260810Z 11004KT 18/17 A2997 RMK A01 T01780170  RH  095%=      5-min Rain = 0
KPD2 260811Z 12005KT 18/17 A2997 RMK A01 T01780170  RH  095%=      5-min Rain = 0
KPD2 260812Z 12004KT 18/17 A2997 RMK A01 T01780170  RH  095%=      5-min Rain = 0
KPD2 260813Z 11003KT 18/17 A2997 RMK A01 T01780170  RH  095%=      5-min Rain = 0
KPD2 260814Z 13002KT 18/17 A2997 RMK A01 T01770170  RH  095%=      5-min Rain = 0
KPD2 260815Z 12003KT 18/17 A2997 RMK A01 T01770170  RH  095%=      5-min Rain = 0
KPD2 260816Z 12003KT 18/17 A2997 RMK A01 T01770169  RH  095%=      5-min Rain = 0
KPD2 260817Z 12004KT 18/17 A2997 RMK A01 T01770169  RH  095%=      5-min Rain = 0
KPD2 260818Z 12003KT 18/17 A2997 RMK A01 T01770169  RH  095%=      5-min Rain = 0
KPD2 260819Z 12004KT 18/17 A2997 RMK A01 T01770169  RH  095%=      5-min Rain = 0
KPD2 260820Z 11004KT 18/17 A2997 RMK A01 T01770169  RH  095%=      5-min Rain = 0
KPD2 260821Z 12003KT 18/17 A2997 RMK A01 T01770169  RH  095%=      5-min Rain = 0
KPD2 260822Z 13003KT 18/17 A2997 RMK A01 T01760169  RH  095%=      5-min Rain = 0
KPD2 260823Z 13004KT 18/17 A2997 RMK A01 T01770169  RH  095%=      5-min Rain = 0
KPD2 260824Z 13004KT 18/17 A2997 RMK A01 T01770170  RH  096%=      5-min Rain = 0
KPD2 260825Z 12004KT 18/17 A2997 RMK A01 T01760169  RH  096%=      5-min Rain = 0
KPD2 260826Z 13004KT 18/17 A2997 RMK A01 T01760169  RH  096%=      5-min Rain = 0
KPD2 260827Z 14004KT 18/17 A2997 RMK A01 T01760169  RH  096%=      5-min Rain = 0
KPD2 260828Z 13003KT 18/17 A2997 RMK A01 T01760169  RH  096%=      5-min Rain = 0
KPD2 260829Z 12003KT 18/17 A2997 RMK A01 T01760169  RH  096%=      5-min Rain = 0
KPD2 260830Z 13003KT 18/17 A2997 RMK A01 T01760169  RH  096%=      5-min Rain = 0
KPD2 260831Z 14003KT 18/17 A2997 RMK A01 T01750168  RH  096%=      5-min Rain = 0
KPD2 260832Z 15003KT 18/17 A2997 RMK A01 T01750168  RH  096%=      5-min Rain = 0
KPD2 260833Z 16004KT 18/17 A2997 RMK A01 T01750168  RH  096%=      5-min Rain = 0
KPD2 260834Z 16003KT 18/17 A2997 RMK A01 T01750168  RH  096%=      5-min Rain = 0
KPD2 260835Z 15004KT 17/17 A2997 RMK A01 T01740167  RH  096%=      5-min Rain = 0
KPD2 260836Z 15004KT 17/17 A2997 RMK A01 T01740167  RH  096%=      5-min Rain = 0
KPD2 260837Z 15003KT 17/17 A2997 RMK A01 T01730166  RH  096%=      5-min Rain = 0
KPD2 260838Z 15003KT 17/17 A2997 RMK A01 T01730167  RH  096%=      5-min Rain = 0
KPD2 260839Z 15004KT 17/17 A2997 RMK A01 T01730166  RH  096%=      5-min Rain = 0
KPD2 260840Z 15004KT 17/17 A2997 RMK A01 T01720166  RH  096%=      5-min Rain = 0
KPD2 260841Z 15005KT 17/17 A2997 RMK A01 T01720166  RH  096%=      5-min Rain = 0
KPD2 260842Z 15005KT 17/17 A2997 RMK A01 T01720167  RH  096%=      5-min Rain = 0
KPD2 260843Z 14005KT 17/17 A2997 RMK A01 T01720166  RH  096%=      5-min Rain = 0
KPD2 260844Z 14004KT 17/17 A2997 RMK A01 T01720167  RH  097%=      5-min Rain = 0
KPD2 260845Z 13005KT 17/17 A2997 RMK A01 T01720167  RH  097%=      5-min Rain = 0
KPD2 260846Z 12005KT 17/17 A2997 RMK A01 T01720167  RH  097%=      5-min Rain = 0
KPD2 260847Z 13004KT 17/17 A2997 RMK A01 T01720167  RH  097%=      5-min Rain = 0
KPD2 260848Z 13004KT 17/17 A2997 RMK A01 T01730168  RH  097%=      5-min Rain = 0
KPD2 260849Z 14005KT 17/17 A2997 RMK A01 T01730169  RH  097%=      5-min Rain = 0
KPD2 260850Z 13005KT 17/17 A2997 RMK A01 T01740169  RH  097%=      5-min Rain = 0
KPD2 260851Z 12005KT 17/17 A2997 RMK A01 T01740169  RH  097%=      5-min Rain = 0
KPD2 260852Z 13004KT 18/17 A2997 RMK A01 T01750170  RH  097%=      5-min Rain = 0
KPD2 260853Z 13004KT 18/17 A2997 RMK A01 T01750170  RH  097%=      5-min Rain = 0
KPD2 260854Z 14005KT 18/17 A2997 RMK A01 T01750170  RH  097%=      5-min Rain = 0
KPD2 260855Z 13005KT 18/17 A2997 RMK A01 T01760171  RH  097%=      5-min Rain = 0
KPD2 260856Z 13004KT 18/17 A2997 RMK A01 T01760171  RH  097%=      5-min Rain = 0
KPD2 260857Z 13004KT 18/17 A2997 RMK A01 T01760171  RH  097%=      5-min Rain = 0
KPD2 260858Z 13006KT 18/17 A2997 RMK A01 T01760171  RH  097%=      5-min Rain = 0
KPD2 260859Z 13005KT 18/17 A2997 RMK A01 T01760171  RH  097%=      5-min Rain = 0
KPD2 260900Z 14005KT 18/17 A2997 RMK A01 T01760171  RH  097%=      5-min Rain = 0
KPD2 260901Z 13005KT 18/17 A2997 RMK A01 T01760170  RH  097%=      5-min Rain = 0
KPD2 260902Z 14005KT 18/17 A2997 RMK A01 T01760170  RH  097%=      5-min Rain = 0
KPD2 260903Z 13005KT 18/17 A2997 RMK A01 T01760170  RH  097%=      5-min Rain = 0
KPD2 260904Z 14005KT 18/17 A2997 RMK A01 T01760170  RH  097%=      5-min Rain = 0
KPD2 260905Z 13006KT 18/17 A2997 RMK A01 T01760170  RH  097%=      5-min Rain = 0
KPD2 260906Z 13005KT 18/17 A2997 RMK A01 T01760170  RH  097%=      5-min Rain = 0
KPD2 260907Z 13005KT 18/17 A2997 RMK A01 T01760170  RH  097%=      5-min Rain = 0
KPD2 260908Z 13005KT 18/17 A2997 RMK A01 T01760170  RH  097%=      5-min Rain = 0
KPD2 260909Z 13005KT 18/17 A2997 RMK A01 T01760170  RH  097%=      5-min Rain = 0
KPD2 260910Z 13004KT 18/17 A2997 RMK A01 T01760171  RH  097%=      5-min Rain = 0
KPD2 260911Z 13004KT 18/17 A2997 RMK A01 T01760171  RH  097%=      5-min Rain = 0
KPD2 260912Z 13005KT 18/17 A2997 RMK A01 T01760171  RH  097%=      5-min Rain = 0
KPD2 260913Z 13005KT 18/17 A2997 RMK A01 T01760171  RH  097%=      5-min Rain = 0
KPD2 260914Z 12005KT 18/17 A2997 RMK A01 T01760171  RH  097%=      5-min Rain = 0
KPD2 260915Z 13004KT 18/17 A2997 RMK A01 T01770171  RH  097%=      5-min Rain = 0
KPD2 260916Z 13005KT 18/17 A2997 RMK A01 T01770171  RH  097%=      5-min Rain = 0
KPD2 260917Z 13005KT 18/17 A2997 RMK A01 T01770171  RH  097%=      5-min Rain = 0
KPD2 260918Z 13005KT 18/17 A2997 RMK A01 T01770172  RH  097%=      5-min Rain = 0
KPD2 260919Z 13005KT 18/17 A2997 RMK A01 T01770172  RH  097%=      5-min Rain = 0
KPD2 260920Z 13005KT 18/17 A2997 RMK A01 T01780172  RH  097%=      5-min Rain = 0
KPD2 260921Z 13004KT 18/17 A2997 RMK A01 T01780172  RH  097%=      5-min Rain = 0
KPD2 260922Z 13005KT 18/17 A2997 RMK A01 T01780172  RH  097%=      5-min Rain = 0
KPD2 260923Z 13005KT 18/17 A2997 RMK A01 T01780173  RH  097%=      5-min Rain = 0
KPD2 260924Z 13005KT 18/17 A2997 RMK A01 T01780173  RH  097%=      5-min Rain = 0
KPD2 260925Z 13004KT 18/17 A2997 RMK A01 T01780173  RH  097%=      5-min Rain = 0
KPD2 260926Z 13005KT 18/17 A2997 RMK A01 T01780173  RH  097%=      5-min Rain = 0
KPD2 260927Z 13005KT 18/17 A2997 RMK A01 T01780173  RH  097%=      5-min Rain = 0
KPD2 260928Z 13005KT 18/17 A2997 RMK A01 T01780173  RH  097%=      5-min Rain = 0
KPD2 260929Z 14004KT 18/17 A2997 RMK A01 T01780173  RH  097%=      5-min Rain = 0
KPD2 260930Z 14004KT 18/17 A2997 RMK A01 T01780173  RH  097%=      5-min Rain = 0
KPD2 260931Z 14004KT 18/17 A2997 RMK A01 T01780173  RH  097%=      5-min Rain = 0
KPD2 260932Z 13004KT 18/17 A2997 RMK A01 T01780173  RH  097%=      5-min Rain = 0
KPD2 260933Z 13003KT 18/17 A2997 RMK A01 T01780173  RH  097%=      5-min Rain = 0
KPD2 260934Z 13003KT 18/17 A2997 RMK A01 T01790174  RH  097%=      5-min Rain = 0
KPD2 260935Z 13004KT 18/17 A2997 RMK A01 T01780173  RH  097%=      5-min Rain = 0
KPD2 260936Z 14003KT 18/17 A2998 RMK A01 T01790174  RH  097%=      5-min Rain = 0
KPD2 260937Z 13003KT 18/17 A2998 RMK A01 T01790174  RH  097%=      5-min Rain = 0
KPD2 260938Z 13003KT 18/17 A2998 RMK A01 T01790174  RH  097%=      5-min Rain = 0
KPD2 260939Z 15003KT 18/17 A2998 RMK A01 T01790174  RH  097%=      5-min Rain = 0
KPD2 260940Z 15003KT 18/17 A2998 RMK A01 T01790174  RH  097%=      5-min Rain = 0
KPD2 260941Z 15003KT 18/17 A2998 RMK A01 T01790174  RH  097%=      5-min Rain = 0
KPD2 260942Z 14004KT 18/17 A2998 RMK A01 T01790174  RH  097%=      5-min Rain = 0
KPD2 260943Z 14004KT 18/17 A2998 RMK A01 T01790174  RH  097%=      5-min Rain = 0
KPD2 260944Z 13004KT 18/18 A2998 RMK A01 T01790175  RH  097%=      5-min Rain = 0
KPD2 260945Z 14003KT 18/18 A2998 RMK A01 T01800175  RH  097%=      5-min Rain = 0
KPD2 260946Z 14004KT 18/18 A2998 RMK A01 T01800175  RH  097%=      5-min Rain = 0
KPD2 260947Z 14003KT 18/18 A2998 RMK A01 T01800175  RH  097%=      5-min Rain = 0
KPD2 260948Z 15004KT 18/18 A2998 RMK A01 T01800176  RH  097%=      5-min Rain = 0
KPD2 260949Z 16003KT 18/18 A2998 RMK A01 T01800176  RH  097%=      5-min Rain = 0
KPD2 260950Z 15004KT 18/18 A2998 RMK A01 T01800176  RH  097%=      5-min Rain = 0
KPD2 260951Z 15004KT 18/18 A2998 RMK A01 T01800176  RH  097%=      5-min Rain = 0
KPD2 260952Z 15003KT 18/18 A2998 RMK A01 T01800176  RH  097%=      5-min Rain = 0
KPD2 260953Z 16004KT 18/18 A2998 RMK A01 T01800176  RH  097%=      5-min Rain = 0
KPD2 260954Z 15004KT 18/18 A2998 RMK A01 T01800175  RH  097%=      5-min Rain = 0
KPD2 260955Z 15004KT 18/18 A2998 RMK A01 T01790175  RH  097%=      5-min Rain = 0
KPD2 260956Z 15005KT 18/18 A2998 RMK A01 T01790175  RH  097%=      5-min Rain = 0
KPD2 260957Z 15005KT 18/18 A2998 RMK A01 T01790175  RH  097%=      5-min Rain = 0
KPD2 260958Z 15005KT 18/18 A2998 RMK A01 T01790176  RH  098%=      5-min Rain = 0
KPD2 260959Z 15005KT 18/18 A2998 RMK A01 T01790176  RH  098%=      5-min Rain = 0
KPD2 261000Z 15005KT 18/18 A2998 RMK A01 T01790176  RH  098%=      5-min Rain = 0
KPD2 261001Z 15004KT 18/18 A2998 RMK A01 T01800176  RH  098%=      5-min Rain = 0
KPD2 261002Z 15004KT 18/18 A2998 RMK A01 T01790176  RH  098%=      5-min Rain = 0
KPD2 261003Z 15004KT 18/18 A2998 RMK A01 T01790176  RH  098%=      5-min Rain = 0
KPD2 261004Z 15004KT 18/18 A2997 RMK A01 T01800176  RH  098%=      5-min Rain = 0
KPD2 261005Z 15004KT 18/18 A2997 RMK A01 T01790176  RH  098%=      5-min Rain = 0
KPD2 261006Z 15004KT 18/18 A2997 RMK A01 T01800176  RH  098%=      5-min Rain = 0
KPD2 261007Z 16004KT 18/18 A2997 RMK A01 T01790176  RH  098%=      5-min Rain = 0
KPD2 261008Z 15003KT 18/18 A2997 RMK A01 T01800176  RH  098%=      5-min Rain = 0
KPD2 261009Z 15004KT 18/18 A2997 RMK A01 T01800176  RH  098%=      5-min Rain = 0
KPD2 261010Z 15003KT 18/18 A2997 RMK A01 T01800176  RH  098%=      5-min Rain = 0
KPD2 261011Z 15003KT 18/18 A2997 RMK A01 T01790176  RH  098%=      5-min Rain = 0
KPD2 261012Z 16003KT 18/18 A2997 RMK A01 T01790176  RH  098%=      5-min Rain = 0
KPD2 261013Z 16004KT 18/18 A2997 RMK A01 T01800177  RH  098%=      5-min Rain = 0
KPD2 261014Z 15003KT 18/18 A2997 RMK A01 T01800177  RH  098%=      5-min Rain = 0
KPD2 261015Z 15003KT 18/18 A2997 RMK A01 T01800177  RH  098%=      5-min Rain = 0
KPD2 261016Z 14003KT 18/18 A2997 RMK A01 T01790177  RH  098%=      5-min Rain = 0
KPD2 261017Z 14004KT 18/18 A2997 RMK A01 T01800177  RH  098%=      5-min Rain = 0
KPD2 261018Z 14003KT 18/18 A2997 RMK A01 T01800177  RH  098%=      5-min Rain = 0
KPD2 261019Z 13004KT 18/18 A2997 RMK A01 T01800177  RH  098%=      5-min Rain = 0
KPD2 261020Z 13004KT 18/18 A2997 RMK A01 T01800178  RH  098%=      5-min Rain = 0
KPD2 261021Z 13004KT 18/18 A2997 RMK A01 T01810178  RH  098%=      5-min Rain = 0
KPD2 261022Z 13004KT 18/18 A2997 RMK A01 T01810178  RH  098%=      5-min Rain = 0
KPD2 261023Z 14003KT 18/18 A2997 RMK A01 T01810178  RH  098%=      5-min Rain = 0
KPD2 261024Z 14004KT 18/18 A2997 RMK A01 T01810179  RH  098%=      5-min Rain = 0
KPD2 261025Z 14004KT 18/18 A2997 RMK A01 T01810179  RH  098%=      5-min Rain = 0
KPD2 261026Z 13004KT 18/18 A2997 RMK A01 T01810179  RH  098%=      5-min Rain = 0
KPD2 261027Z 13004KT 18/18 A2997 RMK A01 T01810179  RH  098%=      5-min Rain = 0
KPD2 261028Z 13005KT 18/18 A2997 RMK A01 T01810179  RH  099%=      5-min Rain = 0
KPD2 261029Z 12004KT 18/18 A2997 RMK A01 T01810179  RH  099%=      5-min Rain = 0
KPD2 261030Z 12004KT 18/18 A2997 RMK A01 T01810179  RH  099%=      5-min Rain = 0
KPD2 261031Z 13003KT 18/18 A2997 RMK A01 T01810179  RH  099%=      5-min Rain = 0
KPD2 261032Z 13004KT 18/18 A2997 RMK A01 T01810179  RH  099%=      5-min Rain = 0
KPD2 261033Z 13004KT 18/18 A2997 RMK A01 T01810179  RH  099%=      5-min Rain = 0
KPD2 261034Z 13004KT 18/18 A2997 RMK A01 T01810179  RH  099%=      5-min Rain = 0
KPD2 261035Z 13004KT 18/18 A2997 RMK A01 T01810179  RH  099%=      5-min Rain = 0
KPD2 261036Z 13004KT 18/18 A2997 RMK A01 T01810179  RH  099%=      5-min Rain = 0
KPD2 261037Z 13004KT 18/18 A2997 RMK A01 T01810179  RH  099%=      5-min Rain = 0
KPD2 261038Z 13004KT 18/18 A2997 RMK A01 T01820180  RH  099%=      5-min Rain = 0
KPD2 261039Z 13003KT 18/18 A2998 RMK A01 T01820180  RH  099%=      5-min Rain = 0
KPD2 261040Z 13003KT 18/18 A2998 RMK A01 T01810180  RH  099%=      5-min Rain = 0
KPD2 261041Z 13003KT 18/18 A2998 RMK A01 T01820180  RH  099%=      5-min Rain = 0
KPD2 261042Z 13004KT 18/18 A2998 RMK A01 T01820180  RH  099%=      5-min Rain = 0
KPD2 261043Z 13004KT 18/18 A2998 RMK A01 T01820180  RH  099%=      5-min Rain = 0
KPD2 261044Z 13005KT 18/18 A2998 RMK A01 T01820180  RH  099%=      5-min Rain = 0
KPD2 261045Z 13003KT 18/18 A2998 RMK A01 T01820180  RH  099%=      5-min Rain = 0
KPD2 261046Z 12003KT 18/18 A2998 RMK A01 T01820180  RH  099%=      5-min Rain = 0
KPD2 261047Z 12004KT 18/18 A2998 RMK A01 T01820180  RH  099%=      5-min Rain = 0
KPD2 261048Z 13004KT 18/18 A2998 RMK A01 T01820180  RH  099%=      5-min Rain = 0
KPD2 261049Z 12004KT 18/18 A2998 RMK A01 T01820180  RH  099%=      5-min Rain = 0
KPD2 261050Z 12003KT 18/18 A2998 RMK A01 T01820180  RH  099%=      5-min Rain = 0
KPD2 261051Z 12004KT 18/18 A2998 RMK A01 T01820180  RH  099%=      5-min Rain = 0
KPD2 261052Z 12004KT 18/18 A2998 RMK A01 T01820180  RH  099%=      5-min Rain = 0
KPD2 261053Z 12003KT 18/18 A2998 RMK A01 T01820180  RH  099%=      5-min Rain = 0
KPD2 261054Z 12003KT 18/18 A2998 RMK A01 T01820180  RH  099%=      5-min Rain = 0
KPD2 261055Z 13005KT 18/18 A2998 RMK A01 T01820180  RH  099%=      5-min Rain = 0
KPD2 261056Z 12004KT 18/18 A2998 RMK A01 T01820181  RH  099%=      5-min Rain = 0
KPD2 261057Z 13003KT 18/18 A2998 RMK A01 T01820181  RH  099%=      5-min Rain = 0
KPD2 261058Z 13003KT 18/18 A2998 RMK A01 T01820180  RH  099%=      5-min Rain = 0
KPD2 261059Z 12004KT 18/18 A2998 RMK A01 T01820181  RH  099%=      5-min Rain = 0
KPD2 261100Z 13004KT 18/18 A2998 RMK A01 T01820181  RH  099%=      5-min Rain = 0
KPD2 261101Z 13003KT 18/18 A2998 RMK A01 T01820181  RH  099%=      5-min Rain = 0
KPD2 261102Z 13004KT 18/18 A2998 RMK A01 T01820181  RH  099%=      5-min Rain = 0
KPD2 261103Z 13003KT 18/18 A2998 RMK A01 T01820181  RH  099%=      5-min Rain = 0
KPD2 261104Z 13003KT 18/18 A2998 RMK A01 T01820181  RH  099%=      5-min Rain = 0
KPD2 261105Z 13004KT 18/18 A2998 RMK A01 T01820181  RH  099%=      5-min Rain = 0
KPD2 261106Z 14004KT 18/18 A2998 RMK A01 T01820181  RH  099%=      5-min Rain = 0
KPD2 261107Z 13003KT 18/18 A2998 RMK A01 T01820181  RH  099%=      5-min Rain = 0
KPD2 261108Z 13004KT 18/18 A2998 RMK A01 T01820181  RH  099%=      5-min Rain = 0
KPD2 261109Z 13004KT 18/18 A2998 RMK A01 T01820181  RH  099%=      5-min Rain = 0
KPD2 261110Z 13004KT 18/18 A2998 RMK A01 T01820181  RH  099%=      5-min Rain = 0
KPD2 261111Z 14004KT 18/18 A2998 RMK A01 T01820181  RH  099%=      5-min Rain = 0
KPD2 261112Z 14003KT 18/18 A2998 RMK A01 T01820181  RH  099%=      5-min Rain = 0
KPD2 261113Z 14003KT 18/18 A2998 RMK A01 T01830181  RH  099%=      5-min Rain = 0
KPD2 261114Z 13003KT 18/18 A2998 RMK A01 T01820181  RH  099%=      5-min Rain = 0
KPD2 261115Z 14003KT 18/18 A2998 RMK A01 T01820181  RH  099%=      5-min Rain = 0
KPD2 261116Z 14004KT 18/18 A2998 RMK A01 T01820181  RH  099%=      5-min Rain = 0
KPD2 261117Z 13002KT 18/18 A2998 RMK A01 T01820181  RH  099%=      5-min Rain = 0
KPD2 261118Z 13002KT 18/18 A2998 RMK A01 T01820181  RH  099%=      5-min Rain = 0
KPD2 261119Z 14004KT 18/18 A2998 RMK A01 T01820181  RH  099%=      5-min Rain = 0
KPD2 261120Z 14003KT 18/18 A2998 RMK A01 T01820181  RH  099%=      5-min Rain = 0
KPD2 261121Z 13003KT 18/18 A2998 RMK A01 T01820181  RH  099%=      5-min Rain = 0
KPD2 261122Z 13003KT 18/18 A2998 RMK A01 T01820181  RH  099%=      5-min Rain = 0
KPD2 261123Z 13004KT 18/18 A2998 RMK A01 T01820181  RH  099%=      5-min Rain = 0
KPD2 261124Z 12004KT 18/18 A2998 RMK A01 T01820181  RH  099%=      5-min Rain = 0
KPD2 261125Z 12004KT 18/18 A2998 RMK A01 T01820181  RH  099%=      5-min Rain = 0
KPD2 261126Z 10004KT 18/18 A2998 RMK A01 T01820181  RH  099%=      5-min Rain = 0
KPD2 261127Z 13003KT 18/18 A2998 RMK A01 T01820181  RH  099%=      5-min Rain = 0
KPD2 261128Z 14003KT 18/18 A2998 RMK A01 T01830181  RH  099%=      5-min Rain = 0
KPD2 261129Z 13003KT 18/18 A2998 RMK A01 T01830181  RH  099%=      5-min Rain = 0
KPD2 261130Z 12004KT 18/18 A2998 RMK A01 T01830181  RH  099%=      5-min Rain = 0
KPD2 261131Z 13004KT 18/18 A2998 RMK A01 T01830181  RH  099%=      5-min Rain = 0
KPD2 261132Z 12004KT 18/18 A2998 RMK A01 T01830181  RH  099%=      5-min Rain = 0
KPD2 261133Z 12002KT 18/18 A2998 RMK A01 T01830181  RH  099%=      5-min Rain = 0
KPD2 261134Z 10003KT 18/18 A2998 RMK A01 T01830182  RH  099%=      5-min Rain = 0
KPD2 261135Z 10005KT 18/18 A2998 RMK A01 T01830181  RH  099%=      5-min Rain = 0
KPD2 261136Z 12004KT 18/18 A2998 RMK A01 T01820181  RH  099%=      5-min Rain = 0
KPD2 261137Z 12004KT 18/18 A2998 RMK A01 T01830182  RH  099%=      5-min Rain = 0
KPD2 261138Z 12004KT 18/18 A2998 RMK A01 T01830182  RH  099%=      5-min Rain = 0
KPD2 261139Z 12004KT 18/18 A2998 RMK A01 T01830182  RH  099%=      5-min Rain = 0
KPD2 261140Z 12005KT 18/18 A2998 RMK A01 T01830182  RH  099%=      5-min Rain = 0
KPD2 261141Z 13004KT 18/18 A2998 RMK A01 T01820181  RH  099%=      5-min Rain = 0
KPD2 261142Z 13004KT 18/18 A2998 RMK A01 T01830182  RH  099%=      5-min Rain = 0
KPD2 261143Z 13004KT 18/18 A2998 RMK A01 T01830182  RH  099%=      5-min Rain = 0
KPD2 261144Z 11004KT 18/18 A2998 RMK A01 T01830182  RH  099%=      5-min Rain = 0
KPD2 261145Z 13004KT 18/18 A2998 RMK A01 T01830182  RH  099%=      5-min Rain = 0
KPD2 261146Z 13005KT 18/18 A2998 RMK A01 T01830182  RH  099%=      5-min Rain = 0
KPD2 261147Z 14004KT 18/18 A2998 RMK A01 T01840182  RH  099%=      5-min Rain = 0
KPD2 261148Z 14004KT 18/18 A2998 RMK A01 T01830182  RH  099%=      5-min Rain = 0
KPD2 261149Z 14005KT 18/18 A2998 RMK A01 T01840182  RH  099%=      5-min Rain = 0
KPD2 261150Z 13004KT 18/18 A2998 RMK A01 T01840183  RH  099%=      5-min Rain = 0
KPD2 261151Z 13005KT 18/18 A2998 RMK A01 T01840183  RH  099%=      5-min Rain = 0
KPD2 261152Z 13005KT 18/18 A2998 RMK A01 T01840182  RH  099%=      5-min Rain = 0
KPD2 261153Z 13005KT 18/18 A2998 RMK A01 T01840183  RH  099%=      5-min Rain = 0
KPD2 261154Z 13005KT 18/18 A2998 RMK A01 T01840183  RH  099%=      5-min Rain = 0
KPD2 261155Z 12005KT 18/18 A2998 RMK A01 T01840183  RH  099%=      5-min Rain = 0
KPD2 261156Z 12005KT 18/18 A2998 RMK A01 T01840183  RH  099%=      5-min Rain = 0
KPD2 261157Z 13005KT 18/18 A2998 RMK A01 T01840183  RH  099%=      5-min Rain = 0
KPD2 261158Z 12005KT 18/18 A2998 RMK A01 T01840183  RH  099%=      5-min Rain = 0
KPD2 261159Z 12005KT 18/18 A2998 RMK A01 T01840183  RH  099%=      5-min Rain = 0
KPD2 261200Z 12006KT 18/18 A2998 RMK A01 T01840183  RH  099%=      5-min Rain = 0
KPD2 261201Z 13005KT 18/18 A2998 RMK A01 T01840183  RH  099%=      5-min Rain = 0
KPD2 261202Z 13005KT 18/18 A2999 RMK A01 T01840183  RH  099%=      5-min Rain = 0
KPD2 261203Z 13005KT 18/18 A2999 RMK A01 T01840183  RH  099%=      5-min Rain = 0
KPD2 261204Z 12005KT 18/18 A2999 RMK A01 T01840183  RH  099%=      5-min Rain = 0
KPD2 261205Z 12005KT 18/18 A2999 RMK A01 T01840183  RH  099%=      5-min Rain = 0
KPD2 261206Z 12004KT 18/18 A2998 RMK A01 T01840183  RH  099%=      5-min Rain = 0
KPD2 261207Z 13004KT 18/18 A2999 RMK A01 T01840183  RH  099%=      5-min Rain = 0
KPD2 261208Z 12004KT 18/18 A2999 RMK A01 T01840183  RH  099%=      5-min Rain = 0
KPD2 261209Z 13005KT 18/18 A2999 RMK A01 T01840183  RH  099%=      5-min Rain = 0
KPD2 261210Z 12004KT 18/18 A2999 RMK A01 T01840183  RH  099%=      5-min Rain = 0
KPD2 261211Z 12004KT 19/18 A2999 RMK A01 T01850184  RH  099%=      5-min Rain = 0
KPD2 261212Z 11003KT 18/18 A2998 RMK A01 T01840183  RH  099%=      5-min Rain = 0
KPD2 261213Z 12003KT 19/18 A2999 RMK A01 T01850184  RH  099%=      5-min Rain = 0
KPD2 261214Z 14005KT 19/18 A2999 RMK A01 T01850184  RH  099%=      5-min Rain = 0
KPD2 261215Z 13004KT 19/18 A2999 RMK A01 T01850184  RH  099%=      5-min Rain = 0
KPD2 261216Z 11004KT 19/18 A2999 RMK A01 T01850184  RH  099%=      5-min Rain = 0
KPD2 261217Z 10005KT 19/18 A2998 RMK A01 T01850184  RH  099%=      5-min Rain = 0
KPD2 261218Z 13004KT 19/18 A2999 RMK A01 T01850184  RH  099%=      5-min Rain = 0
KPD2 261219Z 15005KT 19/18 A2999 RMK A01 T01850184  RH  099%=      5-min Rain = 0
KPD2 261220Z 13005KT 19/18 A2999 RMK A01 T01850184  RH  099%=      5-min Rain = 0
KPD2 261221Z 12004KT 19/18 A2999 RMK A01 T01850184  RH  099%=      5-min Rain = 0
KPD2 261222Z 13003KT 19/18 A2999 RMK A01 T01850184  RH  099%=      5-min Rain = 0
KPD2 261223Z 15003KT 19/18 A2999 RMK A01 T01850184  RH  099%=      5-min Rain = 0
KPD2 261224Z 16004KT 19/18 A2999 RMK A01 T01850184  RH  099%=      5-min Rain = 0
KPD2 261225Z 14005KT 19/18 A2999 RMK A01 T01850184  RH  099%=      5-min Rain = 0
KPD2 261226Z 14004KT 19/18 A2999 RMK A01 T01850184  RH  099%=      5-min Rain = 0
KPD2 261227Z 13005KT 19/18 A2999 RMK A01 T01860184  RH  099%=      5-min Rain = 0
KPD2 261228Z 12005KT 19/19 A2999 RMK A01 T01860185  RH  099%=      5-min Rain = 0
KPD2 261229Z 13005KT 19/19 A2999 RMK A01 T01860185  RH  099%=      5-min Rain = 0
KPD2 261230Z 14005KT 19/19 A2999 RMK A01 T01860185  RH  099%=      5-min Rain = 0
KPD2 261231Z 14005KT 19/19 A2999 RMK A01 T01860185  RH  099%=      5-min Rain = 0
KPD2 261232Z 13005KT 19/19 A2999 RMK A01 T01860185  RH  099%=      5-min Rain = 0
KPD2 261233Z 13005KT 19/19 A2999 RMK A01 T01860185  RH  099%=      5-min Rain = 0
KPD2 261234Z 14004KT 19/19 A2999 RMK A01 T01860185  RH  099%=      5-min Rain = 0
KPD2 261235Z 14005KT 19/19 A2999 RMK A01 T01860185  RH  099%=      5-min Rain = 0
KPD2 261236Z 13005KT 19/19 A2999 RMK A01 T01870185  RH  099%=      5-min Rain = 0
KPD2 261237Z 14005KT 19/19 A2999 RMK A01 T01870186  RH  099%=      5-min Rain = 0
KPD2 261238Z 14004KT 19/19 A2999 RMK A01 T01870186  RH  099%=      5-min Rain = 0
KPD2 261239Z 13004KT 19/19 A2999 RMK A01 T01870186  RH  099%=      5-min Rain = 0
KPD2 261240Z 13004KT 19/19 A2999 RMK A01 T01870186  RH  099%=      5-min Rain = 0
KPD2 261241Z 13005KT 19/19 A2999 RMK A01 T01880186  RH  099%=      5-min Rain = 0
KPD2 261242Z 13005KT 19/19 A2999 RMK A01 T01880187  RH  099%=      5-min Rain = 0
KPD2 261243Z 13004KT 19/19 A2999 RMK A01 T01880186  RH  099%=      5-min Rain = 0
KPD2 261244Z 14004KT 19/19 A2999 RMK A01 T01880186  RH  099%=      5-min Rain = 0
KPD2 261245Z 14005KT 19/19 A2999 RMK A01 T01880186  RH  099%=      5-min Rain = 0
KPD2 261246Z 13005KT 19/19 A2999 RMK A01 T01880186  RH  099%=      5-min Rain = 0
KPD2 261247Z 14004KT 19/19 A2999 RMK A01 T01880186  RH  099%=      5-min Rain = 0
KPD2 261248Z 13004KT 19/19 A2999 RMK A01 T01880186  RH  099%=      5-min Rain = 0
KPD2 261249Z 12003KT 19/19 A2999 RMK A01 T01880187  RH  099%=      5-min Rain = 0
KPD2 261250Z 13005KT 19/19 A2999 RMK A01 T01890187  RH  099%=      5-min Rain = 0
KPD2 261251Z 14005KT 19/19 A2999 RMK A01 T01890187  RH  099%=      5-min Rain = 0
KPD2 261252Z 13004KT 19/19 A2999 RMK A01 T01890187  RH  099%=      5-min Rain = 0
KPD2 261253Z 13005KT 19/19 A2999 RMK A01 T01890187  RH  099%=      5-min Rain = 0
KPD2 261254Z 13005KT 19/19 A2999 RMK A01 T01890187  RH  099%=      5-min Rain = 0
KPD2 261255Z 13006KT 19/19 A2999 RMK A01 T01900187  RH  099%=      5-min Rain = 0
KPD2 261256Z 12005KT 19/19 A2999 RMK A01 T01900188  RH  099%=      5-min Rain = 0
KPD2 261257Z 13005KT 19/19 A2999 RMK A01 T01900188  RH  099%=      5-min Rain = 0
KPD2 261258Z 13006KT 19/19 A2999 RMK A01 T01910188  RH  098%=      5-min Rain = 0
KPD2 261259Z 13006KT 19/19 A2999 RMK A01 T01900188  RH  098%=      5-min Rain = 0
KPD2 261300Z 14005KT 19/19 A2999 RMK A01 T01900188  RH  098%=      5-min Rain = 0
KPD2 261301Z 14004KT 19/19 A2999 RMK A01 T01900187  RH  098%=      5-min Rain = 0
KPD2 261302Z 13005KT 19/19 A2999 RMK A01 T01910187  RH  098%=      5-min Rain = 0
KPD2 261303Z 13005KT 19/19 A2999 RMK A01 T01910188  RH  098%=      5-min Rain = 0
KPD2 261304Z 12005KT 19/19 A2999 RMK A01 T01910188  RH  098%=      5-min Rain = 0
KPD2 261305Z 13005KT 19/19 A2999 RMK A01 T01920188  RH  098%=      5-min Rain = 0
KPD2 261306Z 13005KT 19/19 A2999 RMK A01 T01920188  RH  098%=      5-min Rain = 0
KPD2 261307Z 15004KT 19/19 A2999 RMK A01 T01920188  RH  097%=      5-min Rain = 0
KPD2 261308Z 13004KT 19/19 A2999 RMK A01 T01920188  RH  097%=      5-min Rain = 0
KPD2 261309Z 12005KT 19/19 A2999 RMK A01 T01920188  RH  097%=      5-min Rain = 0
KPD2 261310Z 13005KT 19/19 A2999 RMK A01 T01930188  RH  097%=      5-min Rain = 0
KPD2 261311Z 14005KT 19/19 A2999 RMK A01 T01930188  RH  097%=      5-min Rain = 0
KPD2 261312Z 13004KT 19/19 A30 RMK A01 T01930188  RH  097%=      5-min Rain = 0
KPD2 261313Z 14003KT 19/19 A30 RMK A01 T01930188  RH  097%=      5-min Rain = 0
KPD2 261314Z 14003KT 19/19 A30 RMK A01 T01930187  RH  097%=      5-min Rain = 0
KPD2 261315Z 14004KT 19/19 A30 RMK A01 T01930187  RH  096%=      5-min Rain = 0
KPD2 261316Z 14004KT 19/19 A30 RMK A01 T01930187  RH  096%=      5-min Rain = 0
KPD2 261317Z 15003KT 19/19 A30 RMK A01 T01940188  RH  096%=      5-min Rain = 0
KPD2 261318Z 15005KT 19/19 A30 RMK A01 T01940188  RH  096%=      5-min Rain = 0
KPD2 261319Z 13006KT 19/19 A30 RMK A01 T01940188  RH  096%=      5-min Rain = 0
KPD2 261320Z 13005KT 19/19 A30 RMK A01 T01940188  RH  096%=      5-min Rain = 0
KPD2 261321Z 13005KT 20/19 A30 RMK A01 T01950188  RH  096%=      5-min Rain = 0
KPD2 261322Z 13005KT 20/19 A30 RMK A01 T01950188  RH  096%=      5-min Rain = 0
KPD2 261323Z 13006KT 20/19 A30 RMK A01 T01950188  RH  096%=      5-min Rain = 0
KPD2 261324Z 14006KT 20/19 A30 RMK A01 T01960188  RH  095%=      5-min Rain = 0
KPD2 261325Z 14005KT 20/19 A30 RMK A01 T01960188  RH  095%=      5-min Rain = 0
KPD2 261326Z 13007KT 20/19 A30 RMK A01 T01960188  RH  095%=      5-min Rain = 0
KPD2 261327Z 14006KT 20/19 A30 RMK A01 T01970188  RH  095%=      5-min Rain = 0
KPD2 261328Z 13004KT 20/19 A30 RMK A01 T01970188  RH  095%=      5-min Rain = 0
KPD2 261329Z 13004KT 20/19 A30 RMK A01 T01970188  RH  095%=      5-min Rain = 0
KPD2 261330Z 13007KT 20/19 A30 RMK A01 T01980189  RH  095%=      5-min Rain = 0
KPD2 261331Z 12006KT 20/19 A30 RMK A01 T01980189  RH  094%=      5-min Rain = 0
KPD2 261332Z 11005KT 20/19 A30 RMK A01 T01980189  RH  094%=      5-min Rain = 0
KPD2 261333Z 13005KT 20/19 A30 RMK A01 T01990190  RH  094%=      5-min Rain = 0
KPD2 261334Z 13005KT 20/19 A30 RMK A01 T01990189  RH  094%=      5-min Rain = 0
KPD2 261335Z 12006KT 20/19 A30 RMK A01 T01990189  RH  094%=      5-min Rain = 0
KPD2 261336Z 13004KT 20/19 A30 RMK A01 T01990189  RH  094%=      5-min Rain = 0
KPD2 261337Z 13006KT 20/19 A30 RMK A01 T01990189  RH  094%=      5-min Rain = 0
KPD2 261338Z 13005KT 20/19 A30 RMK A01 T01990189  RH  094%=      5-min Rain = 0
KPD2 261339Z 13006KT 20/19 A30 RMK A01 T01990188  RH  094%=      5-min Rain = 0
KPD2 261340Z 13006KT 20/19 A30 RMK A01 T01990189  RH  094%=      5-min Rain = 0
KPD2 261341Z 13005KT 20/19 A30 RMK A01 T01990189  RH  094%=      5-min Rain = 0
KPD2 261342Z 13005KT 20/19 A30 RMK A01 T01990189  RH  094%=      5-min Rain = 0
KPD2 261343Z 14007KT 20/19 A30 RMK A01 T01990189  RH  094%=      5-min Rain = 0
KPD2 261344Z 14007KT 20/19 A30 RMK A01 T01990189  RH  094%=      5-min Rain = 0
KPD2 261345Z 14006KT 20/19 A30 RMK A01 T01990189  RH  093%=      5-min Rain = 0
KPD2 261346Z 13007KT 20/19 A30 RMK A01 T01990189  RH  093%=      5-min Rain = 0
KPD2 261347Z 14006KT 20/19 A30 RMK A01 T01990189  RH  094%=      5-min Rain = 0
KPD2 261348Z 14006KT 20/19 A30 RMK A01 T02000189  RH  093%=      5-min Rain = 0
KPD2 261349Z 13007KT 20/19 A30 RMK A01 T01990188  RH  093%=      5-min Rain = 0
KPD2 261350Z 13005KT 20/19 A30 RMK A01 T02000189  RH  093%=      5-min Rain = 0
KPD2 261351Z 14005KT 20/19 A30 RMK A01 T02000189  RH  094%=      5-min Rain = 0
KPD2 261352Z 14005KT 20/19 A30 RMK A01 T02000189  RH  093%=      5-min Rain = 0
KPD2 261353Z 13005KT 20/19 A30 RMK A01 T02000189  RH  093%=      5-min Rain = 0
KPD2 261354Z 14005KT 20/19 A3001 RMK A01 T02000190  RH  093%=      5-min Rain = 0
KPD2 261355Z 14006KT 20/19 A3001 RMK A01 T02000189  RH  093%=      5-min Rain = 0
KPD2 261356Z 13006KT 20/19 A3001 RMK A01 T02010189  RH  093%=      5-min Rain = 0
KPD2 261357Z 15005KT 20/19 A3001 RMK A01 T02010189  RH  093%=      5-min Rain = 0
KPD2 261358Z 15004KT 20/19 A3001 RMK A01 T02010190  RH  093%=      5-min Rain = 0
KPD2 261359Z 16004KT 20/19 A3001 RMK A01 T02010190  RH  093%=      5-min Rain = 0
KPD2 261400Z 15005KT 20/19 A3001 RMK A01 T02010190  RH  093%=      5-min Rain = 0
KPD2 261401Z 13005KT 20/19 A3001 RMK A01 T02010189  RH  093%=      5-min Rain = 0
KPD2 261402Z 14004KT 20/19 A3001 RMK A01 T02010190  RH  093%=      5-min Rain = 0
KPD2 261403Z 13005KT 20/19 A3001 RMK A01 T02010190  RH  093%=      5-min Rain = 0
KPD2 261404Z 13005KT 20/19 A3001 RMK A01 T02020190  RH  093%=      5-min Rain = 0
KPD2 261405Z 12006KT 20/19 A3001 RMK A01 T02020190  RH  093%=      5-min Rain = 0
KPD2 261406Z 11005KT 20/19 A3001 RMK A01 T02030191  RH  093%=      5-min Rain = 0
KPD2 261407Z 11005KT 20/19 A30 RMK A01 T02030192  RH  093%=      5-min Rain = 0
KPD2 261408Z 12004KT 20/19 A30 RMK A01 T02030191  RH  093%=      5-min Rain = 0
KPD2 261409Z 12004KT 20/19 A30 RMK A01 T02030191  RH  093%=      5-min Rain = 0
KPD2 261410Z 13006KT 20/19 A30 RMK A01 T02030191  RH  093%=      5-min Rain = 0
KPD2 261411Z 13006KT 20/19 A30 RMK A01 T02030191  RH  093%=      5-min Rain = 0
KPD2 261412Z 13009KT 20/19 A30 RMK A01 T02030191  RH  093%=      5-min Rain = 0
KPD2 261413Z 14006KT 20/19 A30 RMK A01 T02030191  RH  093%=      5-min Rain = 0
KPD2 261414Z 13007KT 20/19 A3001 RMK A01 T02030191  RH  092%=      5-min Rain = 0
KPD2 261415Z 13006KT 20/19 A3001 RMK A01 T02030191  RH  092%=      5-min Rain = 0
KPD2 261416Z 13007KT 20/19 A3001 RMK A01 T02030191  RH  093%=      5-min Rain = 0
KPD2 261417Z 14006KT 20/19 A3001 RMK A01 T02030191  RH  093%=      5-min Rain = 0
KPD2 261418Z 14004KT 20/19 A3001 RMK A01 T02030190  RH  092%=      5-min Rain = 0
KPD2 261419Z 13005KT 20/19 A3001 RMK A01 T02030190  RH  092%=      5-min Rain = 0
KPD2 261420Z 13006KT 20/19 A3001 RMK A01 T02040191  RH  092%=      5-min Rain = 0
KPD2 261421Z 14006KT 20/19 A3001 RMK A01 T02030191  RH  092%=      5-min Rain = 0
KPD2 261422Z 13006KT 20/19 A3001 RMK A01 T02040191  RH  092%=      5-min Rain = 0
KPD2 261423Z 13008KT 20/19 A3001 RMK A01 T02040191  RH  092%=      5-min Rain = 0
KPD2 261424Z 13009KT 20/19 A3001 RMK A01 T02040191  RH  092%=      5-min Rain = 0
KPD2 261425Z 13007KT 20/19 A3001 RMK A01 T02040191  RH  092%=      5-min Rain = 0
KPD2 261426Z 13008KT 20/19 A3001 RMK A01 T02040190  RH  092%=      5-min Rain = 0
KPD2 261427Z 13008KT 20/19 A3001 RMK A01 T02040190  RH  092%=      5-min Rain = 0
KPD2 261428Z 13008KT 20/19 A3001 RMK A01 T02040191  RH  092%=      5-min Rain = 0
KPD2 261429Z 13007KT 20/19 A3001 RMK A01 T02040191  RH  092%=      5-min Rain = 0
KPD2 261430Z 12008KT 20/19 A3001 RMK A01 T02040191  RH  092%=      5-min Rain = 0
KPD2 261431Z 13008KT 20/19 A3001 RMK A01 T02040191  RH  092%=      5-min Rain = 0
KPD2 261432Z 13008KT 20/19 A3001 RMK A01 T02040191  RH  092%=      5-min Rain = 0
KPD2 261433Z 13008KT 20/19 A3001 RMK A01 T02040190  RH  092%=      5-min Rain = 0
KPD2 261434Z 14008KT 20/19 A3001 RMK A01 T02040190  RH  092%=      5-min Rain = 0
KPD2 261435Z 14008KT 20/19 A3001 RMK A01 T02040190  RH  092%=      5-min Rain = 0
KPD2 261436Z 14007KT 20/19 A3001 RMK A01 T02040190  RH  092%=      5-min Rain = 0
KPD2 261437Z 14007KT 20/19 A3001 RMK A01 T02040190  RH  092%=      5-min Rain = 0
KPD2 261438Z 14006KT 20/19 A3001 RMK A01 T02040190  RH  092%=      5-min Rain = 0
KPD2 261439Z 14008KT 20/19 A3001 RMK A01 T02040190  RH  092%=      5-min Rain = 0
KPD2 261440Z 14007KT 20/19 A3001 RMK A01 T02040190  RH  092%=      5-min Rain = 0
KPD2 261441Z 13008KT 20/19 A3001 RMK A01 T02040190  RH  092%=      5-min Rain = 0
KPD2 261442Z 13009KT 20/19 A3001 RMK A01 T02040190  RH  092%=      5-min Rain = 0
KPD2 261443Z 13009KT 20/19 A3001 RMK A01 T02040190  RH  092%=      5-min Rain = 0
KPD2 261444Z 14009KT 20/19 A3001 RMK A01 T02040190  RH  092%=      5-min Rain = 0
KPD2 261445Z 13007KT 20/19 A3001 RMK A01 T02040190  RH  091%=      5-min Rain = 0
KPD2 261446Z 14007KT 20/19 A3002 RMK A01 T02040190  RH  092%=      5-min Rain = 0
KPD2 261447Z 13008KT 21/19 A3002 RMK A01 T02050190  RH  092%=      5-min Rain = 0
KPD2 261448Z 13007KT 21/19 A3002 RMK A01 T02050191  RH  092%=      5-min Rain = 0
KPD2 261449Z 13005KT 21/19 A3002 RMK A01 T02050190  RH  092%=      5-min Rain = 0
KPD2 261450Z 13005KT 21/19 A3002 RMK A01 T02050191  RH  092%=      5-min Rain = 0
KPD2 261451Z 14005KT 21/19 A3002 RMK A01 T02050192  RH  092%=      5-min Rain = 0
KPD2 261452Z 14005KT 21/19 A3002 RMK A01 T02060192  RH  092%=      5-min Rain = 0
KPD2 261453Z 14008KT 21/19 A3002 RMK A01 T02050191  RH  092%=      5-min Rain = 0
KPD2 261454Z 14007KT 21/19 A3002 RMK A01 T02050191  RH  091%=      5-min Rain = 0
KPD2 261455Z 15007KT 21/19 A3003 RMK A01 T02050190  RH  091%=      5-min Rain = 0
KPD2 261456Z 14006KT 21/19 A3003 RMK A01 T02050190  RH  091%=      5-min Rain = 0
KPD2 261457Z 14005KT 21/19 A3003 RMK A01 T02050190  RH  092%=      5-min Rain = 0
KPD2 261458Z 15005KT 21/19 A3003 RMK A01 T02050191  RH  092%=      5-min Rain = 0
KPD2 261459Z 14006KT 21/19 A3003 RMK A01 T02050191  RH  092%=      5-min Rain = 0
KPD2 261500Z 13006KT 21/19 A3003 RMK A01 T02050191  RH  091%=      5-min Rain = 0
KPD2 261501Z 13005KT 21/19 A3003 RMK A01 T02050191  RH  092%=      5-min Rain = 0
KPD2 261502Z 13007KT 21/19 A3003 RMK A01 T02050191  RH  092%=      5-min Rain = 0
KPD2 261503Z 12007KT 21/19 A3003 RMK A01 T02050191  RH  092%=      5-min Rain = 0
KPD2 261504Z 12007KT 21/19 A3002 RMK A01 T02050191  RH  092%=      5-min Rain = 0
KPD2 261505Z 12005KT 21/19 A3002 RMK A01 T02060192  RH  092%=      5-min Rain = 0
KPD2 261506Z 12006KT 21/19 A3002 RMK A01 T02060192  RH  092%=      5-min Rain = 0
KPD2 261507Z 12006KT 21/19 A3002 RMK A01 T02060192  RH  092%=      5-min Rain = 0
KPD2 261508Z 11009KT 21/19 A3001 RMK A01 T02060193  RH  092%=      5-min Rain = 0
KPD2 261509Z 11006G11KT 21/19 A3001 RMK A01 T02060192  RH  091%=      5-min Rain = 0
KPD2 261510Z 11005KT 21/19 A3001 RMK A01 T02070192  RH  092%=      5-min Rain = 0
KPD2 261511Z 12007KT 21/19 A30 RMK A01 T02070193  RH  092%=      5-min Rain = 0
KPD2 261512Z 12007KT 21/19 A30 RMK A01 T02070193  RH  092%=      5-min Rain = 0
KPD2 261513Z 11007G13KT 21/19 A30 RMK A01 T02080194  RH  092%=      5-min Rain = 0
KPD2 261514Z 12008KT 21/19 A30 RMK A01 T02090194  RH  091%=      5-min Rain = 0
KPD2 261515Z 12008KT 21/19 A30 RMK A01 T02100194  RH  091%=      5-min Rain = 0
KPD2 261516Z 13010KT 21/19 A30 RMK A01 T02110194  RH  090%=      5-min Rain = 0
KPD2 261517Z 13008KT 21/19 A30 RMK A01 T02120194  RH  090%=      5-min Rain = 0
KPD2 261518Z 13006G12KT 21/19 A30 RMK A01 T02120194  RH  089%=      5-min Rain = 0
KPD2 261519Z 13009KT 21/20 A30 RMK A01 T02130195  RH  089%=      5-min Rain = 0
KPD2 261520Z 13012KT 21/19 A30 RMK A01 T02130193  RH  088%=      5-min Rain = 0
KPD2 261521Z 13008KT 21/19 A30 RMK A01 T02130193  RH  088%=      5-min Rain = 0
KPD2 261522Z 13010KT 21/19 A30 RMK A01 T02130193  RH  088%=      5-min Rain = 0
KPD2 261523Z 13010KT 21/19 A30 RMK A01 T02130193  RH  088%=      5-min Rain = 0
KPD2 261524Z 14010KT 21/19 A30 RMK A01 T02130193  RH  088%=      5-min Rain = 0
KPD2 261525Z 14009KT 21/19 A30 RMK A01 T02120193  RH  089%=      5-min Rain = 0
KPD2 261526Z 14009KT 21/19 A30 RMK A01 T02120193  RH  089%=      5-min Rain = 0
KPD2 261527Z 14007KT 21/19 A3001 RMK A01 T02130193  RH  089%=      5-min Rain = 0
KPD2 261528Z 13006KT 21/19 A3001 RMK A01 T02130194  RH  089%=      5-min Rain = 0
KPD2 261529Z 14008KT 21/19 A3001 RMK A01 T02140194  RH  088%=      5-min Rain = 0
KPD2 261530Z 13009KT 21/19 A3001 RMK A01 T02140194  RH  088%=      5-min Rain = 0
KPD2 261531Z 14010KT 22/19 A3001 RMK A01 T02150194  RH  088%=      5-min Rain = 0
KPD2 261532Z 13007KT 22/19 A3001 RMK A01 T02150194  RH  088%=      5-min Rain = 0
KPD2 261533Z 13009KT 22/19 A3001 RMK A01 T02150194  RH  088%=      5-min Rain = 0
KPD2 261534Z 14009KT 22/19 A3001 RMK A01 T02160194  RH  088%=      5-min Rain = 0
KPD2 261535Z 14009KT 22/19 A3001 RMK A01 T02160193  RH  087%=      5-min Rain = 0
KPD2 261536Z 13009KT 22/19 A3001 RMK A01 T02150192  RH  087%=      5-min Rain = 0
KPD2 261537Z 13009KT 21/19 A3001 RMK A01 T02140193  RH  088%=      5-min Rain = 0
KPD2 261538Z 14007KT 21/19 A3001 RMK A01 T02140193  RH  088%=      5-min Rain = 0
KPD2 261539Z 13009KT 21/19 A3001 RMK A01 T02140194  RH  088%=      5-min Rain = 0
KPD2 261540Z 14008KT 21/19 A3001 RMK A01 T02140194  RH  088%=      5-min Rain = 0
KPD2 261541Z 13011KT 21/19 A3001 RMK A01 T02140193  RH  088%=      5-min Rain = 0
KPD2 261542Z 13009KT 21/19 A3001 RMK A01 T02140193  RH  088%=      5-min Rain = 0
KPD2 261543Z 14007KT 21/19 A30 RMK A01 T02140194  RH  088%=      5-min Rain = 0
KPD2 261544Z 14009G14KT 21/19 A30 RMK A01 T02140193  RH  088%=      5-min Rain = 0
KPD2 261545Z 13010KT 21/19 A30 RMK A01 T02140193  RH  088%=      5-min Rain = 0
KPD2 261546Z 13007KT 21/19 A30 RMK A01 T02130193  RH  088%=      5-min Rain = 0
KPD2 261547Z 14010KT 21/19 A30 RMK A01 T02130193  RH  089%=      5-min Rain = 0
KPD2 261548Z 13010KT 21/19 A30 RMK A01 T02130193  RH  088%=      5-min Rain = 0
KPD2 261549Z 14011KT 21/19 A30 RMK A01 T02130193  RH  088%=      5-min Rain = 0
KPD2 261550Z 13010KT 21/19 A2999 RMK A01 T02120192  RH  088%=      5-min Rain = 0
KPD2 261551Z 13010KT 21/19 A2999 RMK A01 T02120193  RH  088%=      5-min Rain = 0
KPD2 261552Z 13011KT 21/19 A2999 RMK A01 T02120193  RH  088%=      5-min Rain = 0
KPD2 261553Z 13010KT 21/19 A2999 RMK A01 T02120193  RH  088%=      5-min Rain = 0
KPD2 261554Z 13011KT 21/19 A2999 RMK A01 T02120192  RH  088%=      5-min Rain = 0
KPD2 261555Z 13010KT 21/19 A2999 RMK A01 T02120193  RH  088%=      5-min Rain = 0
KPD2 261556Z 13009KT 21/19 A2999 RMK A01 T02130193  RH  089%=      5-min Rain = 0
KPD2 261557Z 13008KT 21/19 A2999 RMK A01 T02120193  RH  089%=      5-min Rain = 0
KPD2 261558Z 12007KT 21/19 A2999 RMK A01 T02120193  RH  089%=      5-min Rain = 0
KPD2 261559Z 13008KT 21/19 A2999 RMK A01 T02120193  RH  089%=      5-min Rain = 0
KPD2 261600Z 13010KT 21/19 A2999 RMK A01 T02120193  RH  089%=      5-min Rain = 0
KPD2 261601Z 14009KT 21/19 A2999 RMK A01 T02120193  RH  089%=      5-min Rain = 0
KPD2 261602Z 14011KT 21/19 A2999 RMK A01 T02120192  RH  089%=      5-min Rain = 0
KPD2 261603Z 14009KT 21/19 A2999 RMK A01 T02120192  RH  088%=      5-min Rain = 0
KPD2 261604Z 13009KT 21/19 A2999 RMK A01 T02120192  RH  088%=      5-min Rain = 0
KPD2 261605Z 14009KT 21/19 A2999 RMK A01 T02120193  RH  088%=      5-min Rain = 0
KPD2 261606Z 13009KT 21/19 A2999 RMK A01 T02130193  RH  088%=      5-min Rain = 0
KPD2 261607Z 13008KT 21/19 A2999 RMK A01 T02140194  RH  088%=      5-min Rain = 0
KPD2 261608Z 14008KT 21/19 A2999 RMK A01 T02140194  RH  088%=      5-min Rain = 0
KPD2 261609Z 12010KT 22/19 A2999 RMK A01 T02150194  RH  088%=      5-min Rain = 0
KPD2 261610Z 13008KT 22/20 A2999 RMK A01 T02150195  RH  088%=      5-min Rain = 0
KPD2 261611Z 13008KT 22/20 A2999 RMK A01 T02160195  RH  088%=      5-min Rain = 0
KPD2 261612Z 13010KT 22/19 A2999 RMK A01 T02160194  RH  088%=      5-min Rain = 0
KPD2 261613Z 13008KT 22/19 A2999 RMK A01 T02160194  RH  088%=      5-min Rain = 0
KPD2 261614Z 13009KT 22/20 A2999 RMK A01 T02160195  RH  088%=      5-min Rain = 0
KPD2 261615Z 13011KT 22/20 A2999 RMK A01 T02160195  RH  088%=      5-min Rain = 0
KPD2 261616Z 13009KT 22/20 A2999 RMK A01 T02160195  RH  088%=      5-min Rain = 0
KPD2 261617Z 13008KT 22/20 A2999 RMK A01 T02160195  RH  088%=      5-min Rain = 0
KPD2 261618Z 13008KT 22/20 A2999 RMK A01 T02160195  RH  088%=      5-min Rain = 0
KPD2 261619Z 13009KT 22/20 A2999 RMK A01 T02160195  RH  088%=      5-min Rain = 0
KPD2 261620Z 13010KT 22/20 A2999 RMK A01 T02160195  RH  087%=      5-min Rain = 0
KPD2 261621Z 13008KT 22/20 A2999 RMK A01 T02160195  RH  088%=      5-min Rain = 0
KPD2 261622Z 13008KT 22/20 A2999 RMK A01 T02160195  RH  088%=      5-min Rain = 0
KPD2 261623Z 14008KT 22/20 A2999 RMK A01 T02170196  RH  088%=      5-min Rain = 0
KPD2 261624Z 13008KT 22/20 A2999 RMK A01 T02170195  RH  087%=      5-min Rain = 0
KPD2 261625Z 13009KT 22/20 A2999 RMK A01 T02170195  RH  087%=      5-min Rain = 0
KPD2 261626Z 14007KT 22/20 A2999 RMK A01 T02170196  RH  088%=      5-min Rain = 0
KPD2 261627Z 13008KT 22/20 A2999 RMK A01 T02180196  RH  087%=      5-min Rain = 0
KPD2 261628Z 13008KT 22/20 A2999 RMK A01 T02170195  RH  087%=      5-min Rain = 0
KPD2 261629Z 13010KT 22/20 A2999 RMK A01 T02170196  RH  087%=      5-min Rain = 0
KPD2 261630Z 13007KT 22/20 A2999 RMK A01 T02180196  RH  087%=      5-min Rain = 0
KPD2 261631Z 13009KT 22/20 A2999 RMK A01 T02180196  RH  088%=      5-min Rain = 0
KPD2 261632Z 13008KT 22/20 A2999 RMK A01 T02180197  RH  088%=      5-min Rain = 0
KPD2 261633Z 13008KT 22/20 A2999 RMK A01 T02180196  RH  087%=      5-min Rain = 0
KPD2 261634Z 14010KT 22/20 A2999 RMK A01 T02180196  RH  087%=      5-min Rain = 0
KPD2 261635Z 14007KT 22/20 A2999 RMK A01 T02180195  RH  087%=      5-min Rain = 0
KPD2 261636Z 13007KT 22/20 A2999 RMK A01 T02180197  RH  088%=      5-min Rain = 0
KPD2 261637Z 13009KT 22/20 A2999 RMK A01 T02180196  RH  087%=      5-min Rain = 0
KPD2 261638Z 14010KT 22/20 A2999 RMK A01 T02180196  RH  087%=      5-min Rain = 0
KPD2 261639Z 13010KT 22/20 A2999 RMK A01 T02180196  RH  087%=      5-min Rain = 0
KPD2 261640Z 14009KT 22/20 A2999 RMK A01 T02190197  RH  088%=      5-min Rain = 0
KPD2 261641Z 13010KT 22/20 A2999 RMK A01 T02180197  RH  088%=      5-min Rain = 0
KPD2 261642Z 13007KT 22/20 A2999 RMK A01 T02180197  RH  088%=      5-min Rain = 0
KPD2 261643Z 13008KT 22/20 A2999 RMK A01 T02180198  RH  088%=      5-min Rain = 0
KPD2 261644Z 13008KT 22/20 A2999 RMK A01 T02190199  RH  088%=      5-min Rain = 0
KPD2 261645Z 13008KT 22/20 A2999 RMK A01 T02190198  RH  088%=      5-min Rain = 0
KPD2 261646Z 13009KT 22/20 A2999 RMK A01 T02190198  RH  088%=      5-min Rain = 0
KPD2 261647Z 13007KT 22/20 A2999 RMK A01 T02190197  RH  088%=      5-min Rain = 0
KPD2 261648Z 14006KT 22/20 A2999 RMK A01 T02190198  RH  088%=      5-min Rain = 0
KPD2 261649Z 12006KT 22/20 A2999 RMK A01 T02180198  RH  088%=      5-min Rain = 0
KPD2 261650Z 13007KT 22/20 A2999 RMK A01 T02180199  RH  089%=      5-min Rain = 0
KPD2 261651Z 15006KT 22/20 A2999 RMK A01 T02190198  RH  088%=      5-min Rain = 0
KPD2 261652Z 13006KT 22/20 A2999 RMK A01 T02190197  RH  087%=      5-min Rain = 0
KPD2 261653Z 13007KT 22/20 A2999 RMK A01 T02190197  RH  087%=      5-min Rain = 0
KPD2 261654Z 13007KT 22/20 A2999 RMK A01 T02200198  RH  088%=      5-min Rain = 0
KPD2 261655Z 12006KT 22/20 A2999 RMK A01 T02200198  RH  087%=      5-min Rain = 0
KPD2 261656Z 13007KT 22/20 A2999 RMK A01 T02200199  RH  088%=      5-min Rain = 0
KPD2 261657Z 13005KT 22/20 A2999 RMK A01 T02210199  RH  087%=      5-min Rain = 0
KPD2 261658Z 13007KT 22/20 A2999 RMK A01 T02210199  RH  087%=      5-min Rain = 0
KPD2 261659Z 13006KT 22/20 A2999 RMK A01 T02210199  RH  087%=      5-min Rain = 0
KPD2 261700Z 14006KT 22/20 A2999 RMK A01 T02210199  RH  087%=      5-min Rain = 0
KPD2 261701Z 14008KT 22/20 A2999 RMK A01 T02200199  RH  088%=      5-min Rain = 0
KPD2 261702Z 14007KT 22/20 A30 RMK A01 T02200199  RH  088%=      5-min Rain = 0
KPD2 261703Z 14008KT 22/20 A30 RMK A01 T02200199  RH  088%=      5-min Rain = 0
KPD2 261704Z 15008KT 22/20 A30 RMK A01 T02200199  RH  088%=      5-min Rain = 0
KPD2 261705Z 14007KT 22/20 A30 RMK A01 T02200199  RH  088%=      5-min Rain = 0
KPD2 261706Z 13008KT 22/20 A30 RMK A01 T02210200  RH  088%=      5-min Rain = 0
KPD2 261707Z 14009KT 22/20 A2999 RMK A01 T02210199  RH  087%=      5-min Rain = 0
KPD2 261708Z 14009KT 22/20 A2999 RMK A01 T02220198  RH  087%=      5-min Rain = 0
KPD2 261709Z 13007KT 22/20 A2999 RMK A01 T02220198  RH  086%=      5-min Rain = 0
KPD2 261710Z 13008KT 22/20 A2999 RMK A01 T02220198  RH  086%=      5-min Rain = 0
KPD2 261711Z 13008KT 22/20 A2999 RMK A01 T02220198  RH  086%=      5-min Rain = 0
KPD2 261712Z 13010KT 22/20 A2999 RMK A01 T02230198  RH  086%=      5-min Rain = 0
KPD2 261713Z 13009KT 22/20 A2999 RMK A01 T02230198  RH  086%=      5-min Rain = 0
KPD2 261714Z 13008KT 22/20 A2999 RMK A01 T02230198  RH  086%=      5-min Rain = 0
KPD2 261715Z 13010KT 22/20 A2999 RMK A01 T02230199  RH  086%=      5-min Rain = 0
KPD2 261716Z 14008KT 22/20 A2999 RMK A01 T02230197  RH  085%=      5-min Rain = 0
KPD2 261717Z 13006KT 22/20 A2999 RMK A01 T02230198  RH  085%=      5-min Rain = 0
KPD2 261718Z 13007KT 22/20 A2999 RMK A01 T02230198  RH  086%=      5-min Rain = 0
KPD2 261719Z 14009KT 22/20 A2999 RMK A01 T02230198  RH  085%=      5-min Rain = 0
KPD2 261720Z 14008KT 22/20 A2999 RMK A01 T02230198  RH  086%=      5-min Rain = 0
KPD2 261721Z 13006KT 22/20 A2999 RMK A01 T02230199  RH  086%=      5-min Rain = 0
KPD2 261722Z 13007KT 22/20 A2999 RMK A01 T02230199  RH  087%=      5-min Rain = 0
KPD2 261723Z 13008KT 22/20 A2999 RMK A01 T02220199  RH  086%=      5-min Rain = 0
KPD2 261724Z 13007KT 22/20 A2999 RMK A01 T02220199  RH  086%=      5-min Rain = 0
KPD2 261725Z 12007KT 22/20 A2999 RMK A01 T02220199  RH  087%=      5-min Rain = 0
KPD2 261726Z 13008KT 22/20 A2999 RMK A01 T02230200  RH  087%=      5-min Rain = 0
KPD2 261727Z 12009KT 22/20 A2999 RMK A01 T02230200  RH  087%=      5-min Rain = 0
KPD2 261728Z 13008KT 22/20 A2999 RMK A01 T02230200  RH  087%=      5-min Rain = 0
KPD2 261729Z 14008KT 22/20 A2999 RMK A01 T02230199  RH  086%=      5-min Rain = 0
KPD2 261730Z 13008KT 22/20 A2999 RMK A01 T02220198  RH  086%=      5-min Rain = 0
KPD2 261731Z 13010KT 22/20 A2999 RMK A01 T02220198  RH  087%=      5-min Rain = 0
KPD2 261732Z 14010KT 22/20 A2999 RMK A01 T02220198  RH  086%=      5-min Rain = 0
KPD2 261733Z 13006KT 22/20 A2999 RMK A01 T02220198  RH  086%=      5-min Rain = 0
KPD2 261734Z 13008KT 22/20 A2999 RMK A01 T02220199  RH  087%=      5-min Rain = 0
KPD2 261735Z 13008KT 22/20 A2999 RMK A01 T02210198  RH  086%=      5-min Rain = 0
KPD2 261736Z 12005KT 22/20 A2999 RMK A01 T02210198  RH  087%=      5-min Rain = 0
KPD2 261737Z 12009KT 22/20 A2998 RMK A01 T02210199  RH  087%=      5-min Rain = 0
KPD2 261738Z 14009KT 22/20 A2999 RMK A01 T02210198  RH  086%=      5-min Rain = 0
KPD2 261739Z 13008KT 22/20 A2998 RMK A01 T02210197  RH  086%=      5-min Rain = 0
KPD2 261740Z 13009KT 22/20 A2998 RMK A01 T02210198  RH  087%=      5-min Rain = 0
KPD2 261741Z 14009KT 22/20 A2999 RMK A01 T02210197  RH  086%=      5-min Rain = 0
KPD2 261742Z 14008KT 22/20 A2999 RMK A01 T02210197  RH  086%=      5-min Rain = 0
KPD2 261743Z 15007KT 22/20 A2999 RMK A01 T02210198  RH  086%=      5-min Rain = 0
KPD2 261744Z 15008KT 22/20 A2999 RMK A01 T02210198  RH  087%=      5-min Rain = 0
KPD2 261745Z 14008KT 22/20 A2999 RMK A01 T02210198  RH  087%=      5-min Rain = 0
KPD2 261746Z 13009KT 22/20 A2999 RMK A01 T02210199  RH  088%=      5-min Rain = 0
KPD2 261747Z 14009KT 22/20 A2998 RMK A01 T02210198  RH  087%=      5-min Rain = 0
KPD2 261748Z 14007KT 22/20 A2998 RMK A01 T02210198  RH  087%=      5-min Rain = 0
KPD2 261749Z 13012KT 22/20 A2998 RMK A01 T02210199  RH  087%=      5-min Rain = 0
KPD2 261750Z 14010KT 22/20 A2998 RMK A01 T02210197  RH  086%=      5-min Rain = 0
KPD2 261751Z 14010KT 22/20 A2998 RMK A01 T02210196  RH  086%=      5-min Rain = 0
KPD2 261752Z 14009KT 22/20 A2998 RMK A01 T02220197  RH  085%=      5-min Rain = 0
KPD2 261753Z 14008KT 22/20 A2998 RMK A01 T02220196  RH  085%=      5-min Rain = 0
KPD2 261754Z 13008KT 22/20 A2998 RMK A01 T02220196  RH  085%=      5-min Rain = 0
KPD2 261755Z 14009KT 22/20 A2998 RMK A01 T02220197  RH  086%=      5-min Rain = 0
KPD2 261756Z 14009KT 22/20 A2999 RMK A01 T02210197  RH  086%=      5-min Rain = 0
KPD2 261757Z 15010KT 22/20 A2999 RMK A01 T02210198  RH  087%=      5-min Rain = 0
KPD2 261758Z 16010KT 22/20 A2999 RMK A01 T02200198  RH  087%=      5-min Rain = 0
KPD2 261759Z 17012KT 22/20 A2999 RMK A01 T02190197  RH  087%=      5-min Rain = 0
KPD2 261800Z 17011KT 22/20 A2999 RMK A01 T02180196  RH  087%=      5-min Rain = 0
KPD2 261801Z 15008G13KT 22/20 A2999 RMK A01 T02180197  RH  088%=      5-min Rain = 0
KPD2 261802Z 15009KT 22/20 A2999 RMK A01 T02180200  RH  089%=      5-min Rain = 0
KPD2 261803Z 15008KT 22/20 A2998 RMK A01 T02180198  RH  089%=      5-min Rain = 0
KPD2 261804Z 15009KT 22/20 A2998 RMK A01 T02180199  RH  089%=      5-min Rain = 0
KPD2 261805Z 13008KT 22/20 A2998 RMK A01 T02180199  RH  089%=      5-min Rain = 0
KPD2 261806Z 14008KT 22/20 A2998 RMK A01 T02180200  RH  089%=      5-min Rain = 0
KPD2 261807Z 14008KT 22/20 A2998 RMK A01 T02180199  RH  089%=      5-min Rain = 0
KPD2 261808Z 14009KT 22/20 A2998 RMK A01 T02180199  RH  089%=      5-min Rain = 0
KPD2 261809Z 15008KT 22/20 A2998 RMK A01 T02180199  RH  089%=      5-min Rain = 0
KPD2 261810Z 14009KT 22/20 A2998 RMK A01 T02180199  RH  089%=      5-min Rain = 0
KPD2 261811Z 14009KT 22/20 A2998 RMK A01 T02170198  RH  089%=      5-min Rain = 0
KPD2 261812Z 12008KT 22/20 A2998 RMK A01 T02180199  RH  089%=      5-min Rain = 0
KPD2 261813Z 14010KT 22/20 A2998 RMK A01 T02170199  RH  089%=      5-min Rain = 0
KPD2 261814Z 14008KT 22/20 A2998 RMK A01 T02170199  RH  089%=      5-min Rain = 0
KPD2 261815Z 14008KT 22/20 A2998 RMK A01 T02170198  RH  089%=      5-min Rain = 0
KPD2 261816Z 14008KT 22/20 A2998 RMK A01 T02170198  RH  089%=      5-min Rain = 0
KPD2 261817Z 13007KT 22/20 A2998 RMK A01 T02180198  RH  089%=      5-min Rain = 0
KPD2 261818Z 14009KT 22/20 A2998 RMK A01 T02180199  RH  089%=      5-min Rain = 0
KPD2 261819Z 13009KT 22/20 A2998 RMK A01 T02180199  RH  089%=      5-min Rain = 0
KPD2 261820Z 14011KT 22/20 A2998 RMK A01 T02180199  RH  089%=      5-min Rain = 0
KPD2 261821Z 15009KT 22/20 A2998 RMK A01 T02180198  RH  089%=      5-min Rain = 0
KPD2 261822Z 13009KT 22/20 A2998 RMK A01 T02170198  RH  089%=      5-min Rain = 0
KPD2 261823Z 13009KT 22/20 A2998 RMK A01 T02170199  RH  090%=      5-min Rain = 0
KPD2 261824Z 14007KT 22/20 A2998 RMK A01 T02170200  RH  090%=      5-min Rain = 0
KPD2 261825Z 13008KT 22/20 A2998 RMK A01 T02170201  RH  090%=      5-min Rain = 0
KPD2 261826Z 14008KT 22/20 A2998 RMK A01 T02170201  RH  090%=      5-min Rain = 0
KPD2 261827Z 14007G12KT 22/20 A2998 RMK A01 T02170200  RH  090%=      5-min Rain = 0
KPD2 261828Z 13008KT 22/20 A2998 RMK A01 T02170200  RH  090%=      5-min Rain = 0
KPD2 261829Z 14008KT 22/20 A2998 RMK A01 T02170200  RH  090%=      5-min Rain = 0
KPD2 261830Z 14006KT 22/20 A2998 RMK A01 T02170200  RH  090%=      5-min Rain = 0
KPD2 261831Z 13007KT 22/20 A2998 RMK A01 T02170200  RH  090%=      5-min Rain = 0
KPD2 261832Z 14008KT 22/20 A2998 RMK A01 T02170200  RH  090%=      5-min Rain = 0
KPD2 261833Z 15008KT 22/20 A2998 RMK A01 T02170200  RH  090%=      5-min Rain = 0
KPD2 261834Z 15007KT 22/20 A2998 RMK A01 T02170199  RH  090%=      5-min Rain = 0
KPD2 261835Z 15007KT 22/20 A2998 RMK A01 T02170199  RH  090%=      5-min Rain = 0
KPD2 261836Z 14007KT 22/20 A2998 RMK A01 T02170200  RH  090%=      5-min Rain = 0
KPD2 261837Z 15005KT 22/20 A2998 RMK A01 T02180199  RH  089%=      5-min Rain = 0
KPD2 261838Z 14005KT 22/20 A2998 RMK A01 T02180199  RH  089%=      5-min Rain = 0
KPD2 261839Z 14006KT 22/20 A2998 RMK A01 T02190200  RH  089%=      5-min Rain = 0
KPD2 261840Z 14008KT 22/20 A2998 RMK A01 T02190200  RH  089%=      5-min Rain = 0
KPD2 261841Z 14009KT 22/20 A2998 RMK A01 T02190200  RH  089%=      5-min Rain = 0
KPD2 261842Z 14012KT 22/20 A2998 RMK A01 T02190199  RH  088%=      5-min Rain = 0
KPD2 261843Z 14010G15KT 22/20 A2998 RMK A01 T02180198  RH  089%=      5-min Rain = 0
KPD2 261844Z 13011KT 22/20 A2998 RMK A01 T02170198  RH  089%=      5-min Rain = 0
KPD2 261845Z 13011KT 22/20 A2998 RMK A01 T02160199  RH  090%=      5-min Rain = 0
KPD2 261846Z 14010KT 22/20 A2998 RMK A01 T02150199  RH  091%=      5-min Rain = 0
KPD2 261847Z 13010KT 21/20 A2998 RMK A01 T02140199  RH  091%=      5-min Rain = 0
KPD2 261848Z 14008G15KT 21/20 A2998 RMK A01 T02140198  RH  091%=      5-min Rain = 0
KPD2 261849Z 14010KT 21/20 A2998 RMK A01 T02130199  RH  091%=      5-min Rain = 0
KPD2 261850Z 14010KT 21/20 A2998 RMK A01 T02140199  RH  092%=      5-min Rain = 0
KPD2 261851Z 15008KT 21/20 A2998 RMK A01 T02130199  RH  092%=      5-min Rain = 0
KPD2 261852Z 13006KT 21/20 A2998 RMK A01 T02130200  RH  092%=      5-min Rain = 0
KPD2 261853Z 15008KT 21/20 A2998 RMK A01 T02130200  RH  092%=      5-min Rain = 0
KPD2 261854Z 14008KT 21/20 A2998 RMK A01 T02130200  RH  092%=      5-min Rain = 0
KPD2 261855Z 14009KT 21/20 A2998 RMK A01 T02130200  RH  092%=      5-min Rain = 0
KPD2 261856Z 15009KT 21/20 A2998 RMK A01 T02130200  RH  092%=      5-min Rain = 0
KPD2 261857Z 14008KT 21/20 A2998 RMK A01 T02130200  RH  092%=      5-min Rain = 0
KPD2 261858Z 14010KT 21/20 A2998 RMK A01 T02130201  RH  093%=      5-min Rain = 0
KPD2 261859Z 14010KT 21/20 A2998 RMK A01 T02120200  RH  093%=      5-min Rain = 0
KPD2 261900Z 14010KT 21/20 A2998 RMK A01 T02120200  RH  093%=      5-min Rain = 0
KPD2 261901Z 14013KT 21/20 A2998 RMK A01 T02120199  RH  093%=      5-min Rain = 0
KPD2 261902Z 14011KT 21/20 A2998 RMK A01 T02110199  RH  093%=      5-min Rain = 0
KPD2 261903Z 14011KT 21/20 A2998 RMK A01 T02110199  RH  093%=      5-min Rain = 0
KPD2 261904Z 14009KT 21/20 A2998 RMK A01 T02110199  RH  093%=      5-min Rain = 0
KPD2 261905Z 14009KT 21/20 A2998 RMK A01 T02110199  RH  093%=      5-min Rain = 0
KPD2 261906Z 13008KT 21/20 A2998 RMK A01 T02100199  RH  093%=      5-min Rain = 0
KPD2 261907Z 13011KT 21/20 A2998 RMK A01 T02100200  RH  094%=      5-min Rain = 0
KPD2 261908Z 14009KT 21/20 A2997 RMK A01 T02100200  RH  094%=      5-min Rain = 0
KPD2 261909Z 13008KT 21/20 A2997 RMK A01 T02100200  RH  094%=      5-min Rain = 0
KPD2 261910Z 14009KT 21/20 A2997 RMK A01 T02100200  RH  094%=      5-min Rain = 0
KPD2 261911Z 14008KT 21/20 A2997 RMK A01 T02100200  RH  094%=      5-min Rain = 0
KPD2 261912Z 13007KT 21/20 A2997 RMK A01 T02100201  RH  094%=      5-min Rain = 0
KPD2 261913Z 13007G12KT 21/20 A2998 RMK A01 T02100201  RH  095%=      5-min Rain = 0
KPD2 261914Z 13007KT 21/20 A2998 RMK A01 T02100201  RH  095%=      5-min Rain = 0
KPD2 261915Z 14009KT 21/20 A2998 RMK A01 T02100201  RH  095%=      5-min Rain = 0
KPD2 261916Z 14011KT 21/20 A2997 RMK A01 T02100201  RH  094%=      5-min Rain = 0
KPD2 261917Z 14011KT 21/20 A2998 RMK A01 T02100200  RH  094%=      5-min Rain = 0
KPD2 261918Z 15009KT 21/20 A2998 RMK A01 T02090199  RH  094%=      5-min Rain = 0
KPD2 261919Z 14009KT 21/20 A2998 RMK A01 T02090199  RH  094%=      5-min Rain = 0
KPD2 261920Z 14008KT 21/20 A2998 RMK A01 T02100199  RH  094%=      5-min Rain = 0
KPD2 261921Z 14007G12KT 21/20 A2998 RMK A01 T02100200  RH  094%=      5-min Rain = 0
KPD2 261922Z 14008KT 21/20 A2998 RMK A01 T02100200  RH  094%=      5-min Rain = 0
KPD2 261923Z 13008KT 21/20 A2998 RMK A01 T02100201  RH  095%=      5-min Rain = 0
KPD2 261924Z 14007KT 21/20 A2998 RMK A01 T02100201  RH  095%=      5-min Rain = 0
KPD2 261925Z 14007KT 21/20 A2998 RMK A01 T02100201  RH  095%=      5-min Rain = 0
KPD2 261926Z 14008KT 21/20 A2998 RMK A01 T02090201  RH  095%=      5-min Rain = 0
KPD2 261927Z 15008KT 21/20 A2999 RMK A01 T02090201  RH  095%=      5-min Rain = 0
KPD2 261928Z 15007KT 21/20 A2999 RMK A01 T02090200  RH  095%=      5-min Rain = 0
KPD2 261929Z 15006KT 21/20 A2999 RMK A01 T02090200  RH  095%=      5-min Rain = 0
KPD2 261930Z 16007KT 21/20 A2999 RMK A01 T02090200  RH  095%=      5-min Rain = 0
KPD2 261931Z 14006KT 21/20 A2999 RMK A01 T02080200  RH  095%=      5-min Rain = 0
KPD2 261932Z 14007KT 21/20 A2999 RMK A01 T02080200  RH  095%=      5-min Rain = 0
KPD2 261933Z 14008KT 21/20 A2999 RMK A01 T02080200  RH  095%=      5-min Rain = 0
KPD2 261934Z 14007KT 21/20 A30 RMK A01 T02080200  RH  095%=      5-min Rain = 0
KPD2 261935Z 14006KT 21/20 A30 RMK A01 T02080200  RH  095%=      5-min Rain = 0
KPD2 261936Z 14007KT 21/20 A30 RMK A01 T02080200  RH  095%=      5-min Rain = 0
KPD2 261937Z 14007KT 21/20 A2999 RMK A01 T02080199  RH  095%=      5-min Rain = 0
KPD2 261938Z 14006KT 21/20 A2999 RMK A01 T02080199  RH  094%=      5-min Rain = 0
KPD2 261939Z 12007KT 21/20 A2999 RMK A01 T02080199  RH  094%=      5-min Rain = 0
KPD2 261940Z 13007KT 21/20 A2999 RMK A01 T02080199  RH  094%=      5-min Rain = 0
KPD2 261941Z 13008KT 21/20 A2999 RMK A01 T02090200  RH  095%=      5-min Rain = 0
KPD2 261942Z 16007KT 21/20 A2999 RMK A01 T02090200  RH  095%=      5-min Rain = 0
KPD2 261943Z 13006KT 21/20 A2999 RMK A01 T02090199  RH  094%=      5-min Rain = 0
KPD2 261944Z 13008KT 21/20 A2999 RMK A01 T02090199  RH  094%=      5-min Rain = 0
KPD2 261945Z 13008KT 21/20 A2998 RMK A01 T02090199  RH  094%=      5-min Rain = 0
KPD2 261946Z 14008KT 21/20 A2998 RMK A01 T02090199  RH  094%=      5-min Rain = 0
KPD2 261947Z 14009KT 21/20 A2998 RMK A01 T02090199  RH  094%=      5-min Rain = 0
KPD2 261948Z 13011KT 21/20 A2998 RMK A01 T02090199  RH  094%=      5-min Rain = 0
KPD2 261949Z 13009KT 21/20 A2998 RMK A01 T02090198  RH  093%=      5-min Rain = 0
KPD2 261950Z 14008KT 21/20 A2999 RMK A01 T02090198  RH  093%=      5-min Rain = 0
KPD2 261951Z 14009G14KT 21/20 A2999 RMK A01 T02090198  RH  093%=      5-min Rain = 0
KPD2 261952Z 15010KT 21/20 A2999 RMK A01 T02090197  RH  093%=      5-min Rain = 0
KPD2 261953Z 13010KT 21/20 A2999 RMK A01 T02090197  RH  093%=      5-min Rain = 0
KPD2 261954Z 13009KT 21/20 A2999 RMK A01 T02090197  RH  093%=      5-min Rain = 0
KPD2 261955Z 13009KT 21/20 A2999 RMK A01 T02090196  RH  092%=      5-min Rain = 0
KPD2 261956Z 14011KT 21/20 A2998 RMK A01 T02100197  RH  092%=      5-min Rain = 0
KPD2 261957Z 13008KT 21/20 A2998 RMK A01 T02100197  RH  092%=      5-min Rain = 0
KPD2 261958Z 13008KT 21/20 A2998 RMK A01 T02100197  RH  092%=      5-min Rain = 0
KPD2 261959Z 14011KT 21/20 A2998 RMK A01 T02100197  RH  092%=      5-min Rain = 0
KPD2 262000Z 13008KT 21/20 A2998 RMK A01 T02100197  RH  092%=      5-min Rain = 0
KPD2 262001Z 13009KT 21/20 A2998 RMK A01 T02100197  RH  092%=      5-min Rain = 0
KPD2 262002Z 13009KT 21/20 A2998 RMK A01 T02100197  RH  092%=      5-min Rain = 0
KPD2 262003Z 13009KT 21/20 A2998 RMK A01 T02100197  RH  092%=      5-min Rain = 0
KPD2 262004Z 12010KT 21/20 A2997 RMK A01 T02100198  RH  093%=      5-min Rain = 0
KPD2 262005Z 12010KT 21/20 A2997 RMK A01 T02100198  RH  093%=      5-min Rain = 0
KPD2 262006Z 12008KT 21/20 A2997 RMK A01 T02100198  RH  093%=      5-min Rain = 0
KPD2 262007Z 13008KT 21/20 A2997 RMK A01 T02100197  RH  092%=      5-min Rain = 0
KPD2 262008Z 14007KT 21/20 A2997 RMK A01 T02100197  RH  092%=      5-min Rain = 0
KPD2 262009Z 12005KT 21/20 A2997 RMK A01 T02100197  RH  092%=      5-min Rain = 0
KPD2 262010Z 12009KT 21/20 A2997 RMK A01 T02100198  RH  093%=      5-min Rain = 0
KPD2 262011Z 13008KT 21/20 A2997 RMK A01 T02100198  RH  093%=      5-min Rain = 0
KPD2 262012Z 12008KT 21/20 A2997 RMK A01 T02110198  RH  092%=      5-min Rain = 0
KPD2 262013Z 12008G13KT 21/20 A2996 RMK A01 T02110199  RH  093%=      5-min Rain = 0
KPD2 262014Z 13009KT 21/20 A2996 RMK A01 T02110198  RH  092%=      5-min Rain = 0
KPD2 262015Z 13008KT 21/20 A2996 RMK A01 T02110198  RH  092%=      5-min Rain = 0
KPD2 262016Z 12009KT 21/20 A2996 RMK A01 T02110198  RH  092%=      5-min Rain = 0
KPD2 262017Z 12007KT 21/20 A2996 RMK A01 T02110198  RH  092%=      5-min Rain = 0
KPD2 262018Z 13009G17KT 21/20 A2996 RMK A01 T02120199  RH  092%=      5-min Rain = 0
KPD2 262019Z 13012KT 21/20 A2996 RMK A01 T02130198  RH  091%=      5-min Rain = 0
KPD2 262020Z 13011KT 21/20 A2996 RMK A01 T02130197  RH  091%=      5-min Rain = 0
KPD2 262021Z 13007KT 21/20 A2996 RMK A01 T02130197  RH  090%=      5-min Rain = 0
KPD2 262022Z 13008KT 21/20 A2996 RMK A01 T02140198  RH  091%=      5-min Rain = 0
KPD2 262023Z 13011KT 21/20 A2996 RMK A01 T02140198  RH  090%=      5-min Rain = 0
KPD2 262024Z 13010G15KT 22/20 A2995 RMK A01 T02150198  RH  090%=      5-min Rain = 0
KPD2 262025Z 13009KT 22/20 A2995 RMK A01 T02150198  RH  090%=      5-min Rain = 0
KPD2 262026Z 13009G14KT 22/20 A2995 RMK A01 T02160199  RH  090%=      5-min Rain = 0
KPD2 262027Z 13014KT 22/20 A2995 RMK A01 T02160199  RH  090%=      5-min Rain = 0
KPD2 262028Z 14012KT 22/20 A2995 RMK A01 T02170198  RH  089%=      5-min Rain = 0
KPD2 262029Z 13012KT 22/20 A2995 RMK A01 T02170198  RH  089%=      5-min Rain = 0
KPD2 262030Z 13010G15KT 22/20 A2995 RMK A01 T02180199  RH  089%=      5-min Rain = 0
KPD2 262031Z 13012KT 22/20 A2995 RMK A01 T02180198  RH  088%=      5-min Rain = 0
KPD2 262032Z 13010KT 22/20 A2995 RMK A01 T02190198  RH  088%=      5-min Rain = 0
KPD2 262033Z 13014KT 22/20 A2995 RMK A01 T02190199  RH  088%=      5-min Rain = 0
KPD2 262034Z 14010KT 22/20 A2995 RMK A01 T02190199  RH  088%=      5-min Rain = 0
KPD2 262035Z 14012KT 22/20 A2995 RMK A01 T02190199  RH  088%=      5-min Rain = 0
KPD2 262036Z 14011KT 22/20 A2995 RMK A01 T02190198  RH  088%=      5-min Rain = 0
KPD2 262037Z 13012G19KT 22/20 A2995 RMK A01 T02190198  RH  088%=      5-min Rain = 0
KPD2 262038Z 14011G17KT 22/20 A2995 RMK A01 T02190198  RH  088%=      5-min Rain = 0
KPD2 262039Z 15012KT 22/20 A2995 RMK A01 T02190197  RH  087%=      5-min Rain = 0
KPD2 262040Z 15010KT 22/20 A2996 RMK A01 T02190197  RH  087%=      5-min Rain = 0
KPD2 262041Z 15009KT 22/20 A2996 RMK A01 T02190198  RH  087%=      5-min Rain = 0
KPD2 262042Z 15008KT 22/20 A2996 RMK A01 T02190198  RH  088%=      5-min Rain = 0
KPD2 262043Z 14009KT 22/20 A2996 RMK A01 T02200199  RH  088%=      5-min Rain = 0
KPD2 262044Z 14009KT 22/20 A2996 RMK A01 T02190198  RH  088%=      5-min Rain = 0
KPD2 262045Z 14010KT 22/20 A2995 RMK A01 T02190197  RH  087%=      5-min Rain = 0
KPD2 262046Z 14011KT 22/20 A2995 RMK A01 T02190197  RH  087%=      5-min Rain = 0
KPD2 262047Z 14010KT 22/20 A2996 RMK A01 T02190197  RH  087%=      5-min Rain = 0
KPD2 262048Z 14011KT 22/20 A2996 RMK A01 T02190196  RH  087%=      5-min Rain = 0
KPD2 262049Z 14010KT 22/20 A2996 RMK A01 T02190196  RH  087%=      5-min Rain = 0
KPD2 262050Z 14008KT 22/20 A2996 RMK A01 T02190196  RH  087%=      5-min Rain = 0
KPD2 262051Z 14009KT 22/20 A2996 RMK A01 T02190197  RH  087%=      5-min Rain = 0
KPD2 262052Z 13007KT 22/20 A2996 RMK A01 T02190197  RH  087%=      5-min Rain = 0
KPD2 262053Z 13009KT 22/20 A2996 RMK A01 T02190198  RH  088%=      5-min Rain = 0
KPD2 262054Z 12007KT 22/20 A2995 RMK A01 T02190198  RH  088%=      5-min Rain = 0
KPD2 262055Z 13008KT 22/20 A2995 RMK A01 T02180198  RH  088%=      5-min Rain = 0
KPD2 262056Z 13009KT 22/20 A2995 RMK A01 T02180198  RH  088%=      5-min Rain = 0
KPD2 262057Z 13008KT 22/20 A2995 RMK A01 T02180198  RH  088%=      5-min Rain = 0
KPD2 262058Z 13013KT 22/20 A2994 RMK A01 T02180199  RH  089%=      5-min Rain = 0.01
KPD2 262059Z 13012KT 22/20 A2994 RMK A01 T02170199  RH  090%=      5-min Rain = 0
KPD2 262100Z 13012KT 22/20 A2994 RMK A01 T02160200  RH  090%=      5-min Rain = 0.01
KPD2 262101Z 12010KT 22/20 A2994 RMK A01 T02150200  RH  092%=      5-min Rain = 0
KPD2 262102Z 12010KT 21/20 A2994 RMK A01 T02140201  RH  092%=      5-min Rain = 0
KPD2 262103Z 12009KT 21/20 A2995 RMK A01 T02130201  RH  093%=      5-min Rain = 0
KPD2 262104Z 13011G16KT 21/20 A2995 RMK A01 T02130201  RH  093%=      5-min Rain = 0.01
KPD2 262105Z 13012KT 21/20 A2995 RMK A01 T02120201  RH  093%=      5-min Rain = 0
KPD2 262106Z 13010KT 21/20 A2995 RMK A01 T02120201  RH  094%=      5-min Rain = 0
KPD2 262107Z 13010KT 21/20 A2995 RMK A01 T02110201  RH  094%=      5-min Rain = 0
KPD2 262108Z 13011KT 21/20 A2995 RMK A01 T02110201  RH  094%=      5-min Rain = 0
KPD2 262109Z 13009KT 21/20 A2995 RMK A01 T02100201  RH  094%=      5-min Rain = 0
KPD2 262110Z 13009KT 21/20 A2995 RMK A01 T02110201  RH  094%=      5-min Rain = 0
KPD2 262111Z 13010KT 21/20 A2995 RMK A01 T02100201  RH  094%=      5-min Rain = 0
KPD2 262112Z 13009KT 21/20 A2995 RMK A01 T02100201  RH  095%=      5-min Rain = 0
KPD2 262113Z 13010KT 21/20 A2995 RMK A01 T02100201  RH  095%=      5-min Rain = 0
KPD2 262114Z 13007KT 21/20 A2995 RMK A01 T02100201  RH  095%=      5-min Rain = 0
KPD2 262115Z 13009KT 21/20 A2995 RMK A01 T02100202  RH  095%=      5-min Rain = 0
KPD2 262116Z 12009KT 21/20 A2994 RMK A01 T02100202  RH  095%=      5-min Rain = 0
KPD2 262117Z 12008KT 21/20 A2994 RMK A01 T02100202  RH  095%=      5-min Rain = 0
KPD2 262118Z 13010KT 21/20 A2994 RMK A01 T02100202  RH  095%=      5-min Rain = 0
KPD2 262119Z 12009KT 21/20 A2994 RMK A01 T02100202  RH  095%=      5-min Rain = 0
KPD2 262120Z 12011KT 21/20 A2994 RMK A01 T02100202  RH  095%=      5-min Rain = 0
KPD2 262121Z 13009G14KT 21/20 A2994 RMK A01 T02090201  RH  095%=      5-min Rain = 0
KPD2 262122Z 14006KT 21/20 A2994 RMK A01 T02100202  RH  095%=      5-min Rain = 0
KPD2 262123Z 13006KT 21/20 A2994 RMK A01 T02100201  RH  095%=      5-min Rain = 0
KPD2 262124Z 13006KT 21/20 A2994 RMK A01 T02100201  RH  095%=      5-min Rain = 0
KPD2 262125Z 13007KT 21/20 A2994 RMK A01 T02100201  RH  095%=      5-min Rain = 0
KPD2 262126Z 12005KT 21/20 A2993 RMK A01 T02100201  RH  095%=      5-min Rain = 0
KPD2 262127Z 11005KT 21/20 A2993 RMK A01 T02100201  RH  095%=      5-min Rain = 0
KPD2 262128Z 10006KT 21/20 A2992 RMK A01 T02100201  RH  095%=      5-min Rain = 0
KPD2 262129Z 11007KT 21/20 A2992 RMK A01 T02100201  RH  095%=      5-min Rain = 0
KPD2 262130Z 11007G12KT 21/20 A2991 RMK A01 T02100202  RH  095%=      5-min Rain = 0
KPD2 262131Z 13013KT 21/20 A2991 RMK A01 T02100202  RH  095%=      5-min Rain = 0
KPD2 262132Z 12011KT 21/20 A2991 RMK A01 T02110202  RH  095%=      5-min Rain = 0
KPD2 262133Z 13013G18KT 21/20 A2991 RMK A01 T02110202  RH  095%=      5-min Rain = 0
KPD2 262134Z 13012KT 21/20 A2991 RMK A01 T02100201  RH  094%=      5-min Rain = 0
KPD2 262135Z 13011KT 21/20 A2991 RMK A01 T02110201  RH  094%=      5-min Rain = 0
KPD2 262136Z 13012KT 21/20 A2991 RMK A01 T02110201  RH  094%=      5-min Rain = 0
KPD2 262137Z 13010KT 21/20 A299 RMK A01 T02110201  RH  094%=      5-min Rain = 0
KPD2 262138Z 13009KT 21/20 A299 RMK A01 T02110201  RH  094%=      5-min Rain = 0
KPD2 262139Z 13011KT 21/20 A299 RMK A01 T02110201  RH  094%=      5-min Rain = 0
KPD2 262140Z 12009KT 21/20 A2989 RMK A01 T02110200  RH  093%=      5-min Rain = 0
KPD2 262141Z 13006KT 21/20 A2989 RMK A01 T02120201  RH  093%=      5-min Rain = 0
KPD2 262142Z 13011KT 21/20 A2989 RMK A01 T02120202  RH  094%=      5-min Rain = 0
KPD2 262143Z 13012KT 21/20 A2989 RMK A01 T02120201  RH  093%=      5-min Rain = 0
KPD2 262144Z 14010KT 21/20 A2989 RMK A01 T02120200  RH  093%=      5-min Rain = 0
KPD2 262145Z 13011KT 21/20 A299 RMK A01 T02130200  RH  092%=      5-min Rain = 0
KPD2 262146Z 14011G17KT 21/20 A299 RMK A01 T02130200  RH  092%=      5-min Rain = 0
KPD2 262147Z 14009KT 21/20 A299 RMK A01 T02140201  RH  092%=      5-min Rain = 0
KPD2 262148Z 15010KT 21/20 A299 RMK A01 T02140201  RH  092%=      5-min Rain = 0
KPD2 262149Z 14009KT 21/20 A299 RMK A01 T02140201  RH  092%=      5-min Rain = 0
KPD2 262150Z 15011KT 21/20 A2991 RMK A01 T02140202  RH  093%=      5-min Rain = 0
KPD2 262151Z 15011KT 21/20 A2991 RMK A01 T02140202  RH  093%=      5-min Rain = 0
KPD2 262152Z 15011KT 21/20 A2991 RMK A01 T02140201  RH  092%=      5-min Rain = 0
KPD2 262153Z 16009KT 21/20 A2991 RMK A01 T02140201  RH  092%=      5-min Rain = 0
KPD2 262154Z 17010G16KT 21/20 A2991 RMK A01 T02140200  RH  092%=      5-min Rain = 0
KPD2 262155Z 16013KT 21/20 A2992 RMK A01 T02140199  RH  091%=      5-min Rain = 0
KPD2 262156Z 16010KT 21/20 A2992 RMK A01 T02140199  RH  091%=      5-min Rain = 0
KPD2 262157Z 16012KT 21/20 A2992 RMK A01 T02140200  RH  092%=      5-min Rain = 0
KPD2 262158Z 15012KT 21/20 A2993 RMK A01 T02140199  RH  091%=      5-min Rain = 0
KPD2 262159Z 14011KT 21/20 A2992 RMK A01 T02140200  RH  091%=      5-min Rain = 0
KPD2 262200Z 14010KT 21/20 A2992 RMK A01 T02140199  RH  091%=      5-min Rain = 0
KPD2 262201Z 14011KT 21/20 A2992 RMK A01 T02140199  RH  091%=      5-min Rain = 0
KPD2 262202Z 14012KT 21/20 A2992 RMK A01 T02140199  RH  091%=      5-min Rain = 0
KPD2 262203Z 14012KT 21/20 A2992 RMK A01 T02140199  RH  091%=      5-min Rain = 0
KPD2 262204Z 14009KT 21/20 A2992 RMK A01 T02130199  RH  092%=      5-min Rain = 0
KPD2 262205Z 13010G15KT 21/20 A2991 RMK A01 T02130199  RH  092%=      5-min Rain = 0
KPD2 262206Z 13012KT 21/20 A2991 RMK A01 T02130199  RH  092%=      5-min Rain = 0
KPD2 262207Z 13009KT 21/20 A299 RMK A01 T02120198  RH  092%=      5-min Rain = 0
KPD2 262208Z 13011G16KT 21/20 A2989 RMK A01 T02130198  RH  092%=      5-min Rain = 0
KPD2 262209Z 13013KT 21/20 A2989 RMK A01 T02120198  RH  091%=      5-min Rain = 0
KPD2 262210Z 13012G17KT 21/20 A2989 RMK A01 T02120198  RH  091%=      5-min Rain = 0
KPD2 262211Z 14013G18KT 21/20 A299 RMK A01 T02120198  RH  092%=      5-min Rain = 0
KPD2 262212Z 14011KT 21/20 A2991 RMK A01 T02120198  RH  091%=      5-min Rain = 0
KPD2 262213Z 14014G19KT 21/20 A2991 RMK A01 T02120198  RH  091%=      5-min Rain = 0
KPD2 262214Z 13011KT 21/20 A2991 RMK A01 T02120197  RH  091%=      5-min Rain = 0
KPD2 262215Z 13013KT 21/20 A299 RMK A01 T02130198  RH  091%=      5-min Rain = 0
KPD2 262216Z 13012KT 21/20 A299 RMK A01 T02120198  RH  091%=      5-min Rain = 0
KPD2 262217Z 13011G16KT 21/20 A299 RMK A01 T02130198  RH  091%=      5-min Rain = 0
KPD2 262218Z 13013KT 21/20 A299 RMK A01 T02120198  RH  091%=      5-min Rain = 0
KPD2 262219Z 12012KT 21/20 A299 RMK A01 T02130198  RH  091%=      5-min Rain = 0
KPD2 262220Z 13010KT 21/20 A299 RMK A01 T02120198  RH  091%=      5-min Rain = 0
KPD2 262221Z 11008G14KT 21/20 A2989 RMK A01 T02120198  RH  092%=      5-min Rain = 0
KPD2 262222Z 13014KT 21/20 A2989 RMK A01 T02120198  RH  092%=      5-min Rain = 0
KPD2 262223Z 13013KT 21/20 A2989 RMK A01 T02120198  RH  091%=      5-min Rain = 0
KPD2 262224Z 12013KT 21/20 A2988 RMK A01 T02120197  RH  091%=      5-min Rain = 0
KPD2 262225Z 13013KT 21/20 A2988 RMK A01 T02130198  RH  091%=      5-min Rain = 0
KPD2 262226Z 13014KT 21/20 A2988 RMK A01 T02130198  RH  091%=      5-min Rain = 0
KPD2 262227Z 13009G14KT 21/20 A2988 RMK A01 T02140198  RH  090%=      5-min Rain = 0
KPD2 262228Z 13010G15KT 22/20 A2987 RMK A01 T02150198  RH  090%=      5-min Rain = 0
KPD2 262229Z 12009KT 22/20 A2987 RMK A01 T02160199  RH  090%=      5-min Rain = 0
KPD2 262230Z 13010KT 22/20 A2988 RMK A01 T02160200  RH  090%=      5-min Rain = 0
KPD2 262231Z 13012G19KT 22/20 A2988 RMK A01 T02170200  RH  090%=      5-min Rain = 0
KPD2 262232Z 14012KT 22/20 A2988 RMK A01 T02180199  RH  089%=      5-min Rain = 0
KPD2 262233Z 15009G14KT 22/20 A2988 RMK A01 T02180199  RH  089%=      5-min Rain = 0
KPD2 262234Z 14011G16KT 22/20 A2988 RMK A01 T02190200  RH  089%=      5-min Rain = 0
KPD2 262235Z 14012KT 22/20 A2988 RMK A01 T02190199  RH  089%=      5-min Rain = 0
KPD2 262236Z 13013G18KT 22/20 A2988 RMK A01 T02190199  RH  088%=      5-min Rain = 0
KPD2 262237Z 14013KT 22/20 A2988 RMK A01 T02190198  RH  088%=      5-min Rain = 0
KPD2 262238Z 14013KT 22/20 A2988 RMK A01 T02190198  RH  088%=      5-min Rain = 0
KPD2 262239Z 14014G20KT 22/20 A2988 RMK A01 T02190198  RH  088%=      5-min Rain = 0
KPD2 262240Z 14016KT 22/20 A2988 RMK A01 T02190197  RH  087%=      5-min Rain = 0
KPD2 262241Z 13014KT 22/20 A2987 RMK A01 T02190197  RH  087%=      5-min Rain = 0
KPD2 262242Z 14014KT 22/20 A2987 RMK A01 T02190198  RH  088%=      5-min Rain = 0
KPD2 262243Z 13012G17KT 22/20 A2987 RMK A01 T02190198  RH  088%=      5-min Rain = 0
KPD2 262244Z 15014KT 22/20 A2988 RMK A01 T02180198  RH  088%=      5-min Rain = 0
KPD2 262245Z 14012G17KT 22/20 A2988 RMK A01 T02180197  RH  088%=      5-min Rain = 0
KPD2 262246Z 13012KT 22/20 A2988 RMK A01 T02180197  RH  088%=      5-min Rain = 0
KPD2 262247Z 14012KT 22/20 A2988 RMK A01 T02180197  RH  088%=      5-min Rain = 0
KPD2 262248Z 14011KT 22/20 A2988 RMK A01 T02180198  RH  089%=      5-min Rain = 0
KPD2 262249Z 14014KT 22/20 A2988 RMK A01 T02180199  RH  089%=      5-min Rain = 0
KPD2 262250Z 14013KT 22/20 A2988 RMK A01 T02180198  RH  088%=      5-min Rain = 0
KPD2 262251Z 14013KT 22/20 A2988 RMK A01 T02170197  RH  088%=      5-min Rain = 0
KPD2 262252Z 13011KT 22/20 A2988 RMK A01 T02170197  RH  089%=      5-min Rain = 0
KPD2 262253Z 14012KT 22/20 A2989 RMK A01 T02170198  RH  089%=      5-min Rain = 0
KPD2 262254Z 13015KT 22/20 A2989 RMK A01 T02170198  RH  089%=      5-min Rain = 0
KPD2 262255Z 14015KT 22/20 A2989 RMK A01 T02160197  RH  089%=      5-min Rain = 0
KPD2 262256Z 14015KT 22/20 A2989 RMK A01 T02160196  RH  089%=      5-min Rain = 0
KPD2 262257Z 13014KT 22/20 A2989 RMK A01 T02160197  RH  089%=      5-min Rain = 0
KPD2 262258Z 13013KT 22/20 A2988 RMK A01 T02160197  RH  089%=      5-min Rain = 0
KPD2 262259Z 13009G14KT 22/20 A2987 RMK A01 T02160198  RH  089%=      5-min Rain = 0
KPD2 262300Z 12008KT 22/20 A2987 RMK A01 T02160198  RH  090%=      5-min Rain = 0
KPD2 262301Z 13012KT 22/20 A2987 RMK A01 T02160199  RH  090%=      5-min Rain = 0
KPD2 262302Z 14013KT 22/20 A2987 RMK A01 T02150198  RH  090%=      5-min Rain = 0
KPD2 262303Z 13013KT 22/20 A2988 RMK A01 T02150198  RH  090%=      5-min Rain = 0
KPD2 262304Z 13014KT 22/20 A2987 RMK A01 T02150198  RH  090%=      5-min Rain = 0
KPD2 262305Z 13012KT 22/20 A2987 RMK A01 T02150197  RH  090%=      5-min Rain = 0
KPD2 262306Z 13011KT 22/20 A2987 RMK A01 T02150198  RH  090%=      5-min Rain = 0
KPD2 262307Z 13008KT 22/20 A2987 RMK A01 T02160199  RH  090%=      5-min Rain = 0
KPD2 262308Z 13010KT 22/20 A2987 RMK A01 T02170199  RH  090%=      5-min Rain = 0
KPD2 262309Z 13011KT 22/20 A2987 RMK A01 T02170199  RH  089%=      5-min Rain = 0
KPD2 262310Z 13012KT 22/20 A2987 RMK A01 T02170199  RH  089%=      5-min Rain = 0
KPD2 262311Z 13012KT 22/20 A2987 RMK A01 T02180199  RH  089%=      5-min Rain = 0
KPD2 262312Z 14008KT 22/20 A2986 RMK A01 T02180198  RH  089%=      5-min Rain = 0
KPD2 262313Z 13009KT 22/20 A2986 RMK A01 T02180199  RH  089%=      5-min Rain = 0
KPD2 262314Z 13010G15KT 22/20 A2985 RMK A01 T02180199  RH  089%=      5-min Rain = 0
KPD2 262315Z 12010KT 22/20 A2985 RMK A01 T02190200  RH  089%=      5-min Rain = 0
KPD2 262316Z 11008KT 22/20 A2985 RMK A01 T02190199  RH  089%=      5-min Rain = 0
KPD2 262317Z 12013KT 22/20 A2985 RMK A01 T02190199  RH  088%=      5-min Rain = 0
KPD2 262318Z 14012KT 22/20 A2985 RMK A01 T02190199  RH  088%=      5-min Rain = 0
KPD2 262319Z 14011G16KT 22/20 A2985 RMK A01 T02190198  RH  088%=      5-min Rain = 0
KPD2 262320Z 14013KT 22/20 A2986 RMK A01 T02200198  RH  088%=      5-min Rain = 0
KPD2 262321Z 14012KT 22/20 A2986 RMK A01 T02190198  RH  088%=      5-min Rain = 0
KPD2 262322Z 14011KT 22/20 A2987 RMK A01 T02190199  RH  088%=      5-min Rain = 0
KPD2 262323Z 13012G17KT 22/20 A2987 RMK A01 T02190199  RH  088%=      5-min Rain = 0
KPD2 262324Z 13011G16KT 22/20 A2987 RMK A01 T02180198  RH  088%=      5-min Rain = 0
KPD2 262325Z 13010KT 22/20 A2986 RMK A01 T02180198  RH  088%=      5-min Rain = 0
KPD2 262326Z 14011G16KT 22/20 A2986 RMK A01 T02180198  RH  088%=      5-min Rain = 0
KPD2 262327Z 13011KT 22/20 A2986 RMK A01 T02180198  RH  089%=      5-min Rain = 0
KPD2 262328Z 13008KT 22/20 A2986 RMK A01 T02180199  RH  089%=      5-min Rain = 0
KPD2 262329Z 13010KT 22/20 A2986 RMK A01 T02180199  RH  089%=      5-min Rain = 0
KPD2 262330Z 13011KT 22/20 A2986 RMK A01 T02170198  RH  089%=      5-min Rain = 0
KPD2 262331Z 13012KT 22/20 A2986 RMK A01 T02170199  RH  089%=      5-min Rain = 0
KPD2 262332Z 13013KT 22/20 A2986 RMK A01 T02170199  RH  089%=      5-min Rain = 0
KPD2 262333Z 13013KT 22/20 A2986 RMK A01 T02170198  RH  089%=      5-min Rain = 0
KPD2 262334Z 13009G14KT 22/20 A2985 RMK A01 T02180199  RH  089%=      5-min Rain = 0
KPD2 262335Z 13011KT 22/20 A2985 RMK A01 T02170199  RH  089%=      5-min Rain = 0
KPD2 262336Z 13012KT 22/20 A2985 RMK A01 T02170198  RH  089%=      5-min Rain = 0
KPD2 262337Z 12008G13KT 22/20 A2985 RMK A01 T02170198  RH  089%=      5-min Rain = 0
KPD2 262338Z 13008G14KT 22/20 A2985 RMK A01 T02170198  RH  089%=      5-min Rain = 0
KPD2 262339Z 13010KT 22/20 A2984 RMK A01 T02170198  RH  089%=      5-min Rain = 0
KPD2 262340Z 13010KT 22/20 A2985 RMK A01 T02170198  RH  089%=      5-min Rain = 0
KPD2 262341Z 13011KT 22/20 A2985 RMK A01 T02170198  RH  089%=      5-min Rain = 0
KPD2 262342Z 13011KT 22/20 A2985 RMK A01 T02170198  RH  089%=      5-min Rain = 0
KPD2 262343Z 13013KT 22/20 A2985 RMK A01 T02170197  RH  089%=      5-min Rain = 0
KPD2 262344Z 13009KT 22/20 A2985 RMK A01 T02170197  RH  088%=      5-min Rain = 0
KPD2 262345Z 13013KT 22/20 A2985 RMK A01 T02170198  RH  088%=      5-min Rain = 0
KPD2 262346Z 14011KT 22/20 A2986 RMK A01 T02180198  RH  088%=      5-min Rain = 0
KPD2 262347Z 14009KT 22/20 A2986 RMK A01 T02180197  RH  088%=      5-min Rain = 0
KPD2 262348Z 13008G13KT 22/20 A2986 RMK A01 T02180198  RH  088%=      5-min Rain = 0
KPD2 262349Z 13010KT 22/20 A2986 RMK A01 T02180198  RH  089%=      5-min Rain = 0
KPD2 262350Z 13009KT 22/20 A2986 RMK A01 T02180198  RH  088%=      5-min Rain = 0
KPD2 262351Z 14009KT 22/20 A2986 RMK A01 T02180198  RH  088%=      5-min Rain = 0
KPD2 262352Z 13010KT 22/20 A2986 RMK A01 T02180198  RH  088%=      5-min Rain = 0
KPD2 262353Z 13009KT 22/20 A2987 RMK A01 T02180198  RH  088%=      5-min Rain = 0
KPD2 262354Z 14013KT 22/20 A2987 RMK A01 T02180198  RH  088%=      5-min Rain = 0
KPD2 262355Z 14015G20KT 22/20 A2987 RMK A01 T02190197  RH  087%=      5-min Rain = 0
KPD2 262356Z 15015G22KT 22/20 A2987 RMK A01 T02200197  RH  087%=      5-min Rain = 0
KPD2 262357Z 14010KT 22/20 A2987 RMK A01 T02200197  RH  087%=      5-min Rain = 0
KPD2 262358Z 14012G19KT 22/20 A2987 RMK A01 T02210198  RH  087%=      5-min Rain = 0
KPD2 262359Z 15011G16KT 22/20 A2987 RMK A01 T02210198  RH  086%=      5-min Rain = 0
KPD2 270000Z 14009KT 22/20 A2987 RMK A01 T02220199  RH  087%=      5-min Rain = 0
KPD2 270001Z 15010KT 22/20 A2987 RMK A01 T02220199  RH  087%=      5-min Rain = 0
KPD2 270002Z 14009KT 22/20 A2986 RMK A01 T02220199  RH  087%=      5-min Rain = 0
KPD2 270003Z 14010KT 22/20 A2986 RMK A01 T02220199  RH  087%=      5-min Rain = 0
KPD2 270004Z 13010G18KT 22/20 A2986 RMK A01 T02220198  RH  086%=      5-min Rain = 0
KPD2 270005Z 15012KT 22/20 A2986 RMK A01 T02220199  RH  086%=      5-min Rain = 0
KPD2 270006Z 14011KT 22/20 A2986 RMK A01 T02230199  RH  086%=      5-min Rain = 0
KPD2 270007Z 14015G20KT 22/20 A2986 RMK A01 T02230198  RH  086%=      5-min Rain = 0
KPD2 270008Z 14015G20KT 22/20 A2986 RMK A01 T02240197  RH  085%=      5-min Rain = 0
KPD2 270009Z 14012G19KT 23/20 A2986 RMK A01 T02250197  RH  084%=      5-min Rain = 0
KPD2 270010Z 14017KT 23/20 A2985 RMK A01 T02250197  RH  084%=      5-min Rain = 0
KPD2 270011Z 14020G26KT 23/20 A2985 RMK A01 T02260197  RH  083%=      5-min Rain = 0
KPD2 270012Z 14015G20KT 23/20 A2985 RMK A01 T02260196  RH  083%=      5-min Rain = 0
KPD2 270013Z 15011KT 23/20 A2985 RMK A01 T02270196  RH  083%=      5-min Rain = 0
KPD2 270014Z 15012KT 23/20 A2984 RMK A01 T02270197  RH  083%=      5-min Rain = 0
KPD2 270015Z 15011G16KT 23/20 A2984 RMK A01 T02270197  RH  083%=      5-min Rain = 0
KPD2 270016Z 13012G17KT 23/20 A2984 RMK A01 T02270198  RH  083%=      5-min Rain = 0
KPD2 270017Z 14010G15KT 23/20 A2984 RMK A01 T02270198  RH  084%=      5-min Rain = 0
KPD2 270018Z 14014KT 23/20 A2984 RMK A01 T02260198  RH  084%=      5-min Rain = 0
KPD2 270019Z 15011KT 23/20 A2984 RMK A01 T02270197  RH  084%=      5-min Rain = 0
KPD2 270020Z 15012KT 23/20 A2984 RMK A01 T02270197  RH  083%=      5-min Rain = 0
KPD2 270021Z 14010KT 23/20 A2984 RMK A01 T02260197  RH  083%=      5-min Rain = 0
KPD2 270022Z 15012G17KT 23/20 A2984 RMK A01 T02270197  RH  083%=      5-min Rain = 0
KPD2 270023Z 15013KT 23/20 A2984 RMK A01 T02270196  RH  083%=      5-min Rain = 0
KPD2 270024Z 14013KT 23/20 A2983 RMK A01 T02270197  RH  083%=      5-min Rain = 0
KPD2 270025Z 16011G17KT 23/20 A2983 RMK A01 T02270196  RH  083%=      5-min Rain = 0
KPD2 270026Z 13010KT 23/20 A2983 RMK A01 T02270197  RH  083%=      5-min Rain = 0
KPD2 270027Z 13011KT 23/20 A2983 RMK A01 T02270197  RH  083%=      5-min Rain = 0
KPD2 270028Z 14011KT 23/20 A2983 RMK A01 T02260197  RH  084%=      5-min Rain = 0
KPD2 270029Z 14014G20KT 23/20 A2983 RMK A01 T02260197  RH  083%=      5-min Rain = 0
KPD2 270030Z 14015KT 23/20 A2983 RMK A01 T02260196  RH  083%=      5-min Rain = 0
KPD2 270031Z 15015KT 23/20 A2983 RMK A01 T02260196  RH  083%=      5-min Rain = 0
KPD2 270032Z 14011KT 23/20 A2983 RMK A01 T02260196  RH  083%=      5-min Rain = 0
KPD2 270033Z 14012G19KT 23/20 A2983 RMK A01 T02260196  RH  083%=      5-min Rain = 0
KPD2 270034Z 14013KT 23/20 A2983 RMK A01 T02260197  RH  083%=      5-min Rain = 0
KPD2 270035Z 14014KT 23/20 A2983 RMK A01 T02260196  RH  083%=      5-min Rain = 0
KPD2 270036Z 13013KT 23/20 A2982 RMK A01 T02260197  RH  083%=      5-min Rain = 0
KPD2 270037Z 13013KT 23/20 A2982 RMK A01 T02260197  RH  083%=      5-min Rain = 0
KPD2 270038Z 13014G21KT 23/20 A2982 RMK A01 T02260197  RH  084%=      5-min Rain = 0
KPD2 270039Z 14014KT 23/20 A2982 RMK A01 T02260197  RH  083%=      5-min Rain = 0
KPD2 270040Z 14011KT 23/20 A2981 RMK A01 T02260197  RH  083%=      5-min Rain = 0
KPD2 270041Z 14012G18KT 23/20 A2981 RMK A01 T02260197  RH  084%=      5-min Rain = 0
KPD2 270042Z 14010G16KT 23/20 A2981 RMK A01 T02260197  RH  084%=      5-min Rain = 0
KPD2 270043Z 14013G20KT 23/20 A2981 RMK A01 T02260197  RH  084%=      5-min Rain = 0
KPD2 270044Z 14012KT 23/20 A2981 RMK A01 T02260198  RH  084%=      5-min Rain = 0
KPD2 270045Z 13015G21KT 23/20 A2981 RMK A01 T02260197  RH  084%=      5-min Rain = 0
KPD2 270046Z 13016G21KT 23/20 A2981 RMK A01 T02260197  RH  084%=      5-min Rain = 0
KPD2 270047Z 14014KT 23/20 A2981 RMK A01 T02260197  RH  084%=      5-min Rain = 0
KPD2 270048Z 14012G17KT 23/20 A2981 RMK A01 T02260197  RH  084%=      5-min Rain = 0
KPD2 270049Z 14014KT 23/20 A2981 RMK A01 T02260197  RH  084%=      5-min Rain = 0
KPD2 270050Z 14011KT 23/20 A2982 RMK A01 T02260197  RH  084%=      5-min Rain = 0
KPD2 270051Z 13012G18KT 23/20 A2982 RMK A01 T02260197  RH  084%=      5-min Rain = 0
KPD2 270052Z 14015G21KT 23/20 A2982 RMK A01 T02260198  RH  084%=      5-min Rain = 0
KPD2 270053Z 14011KT 23/20 A2981 RMK A01 T02260197  RH  084%=      5-min Rain = 0
KPD2 270054Z 13013G18KT 23/20 A2982 RMK A01 T02260197  RH  084%=      5-min Rain = 0
KPD2 270055Z 14015KT 23/20 A2982 RMK A01 T02260197  RH  084%=      5-min Rain = 0
KPD2 270056Z 13015KT 23/20 A2982 RMK A01 T02260197  RH  084%=      5-min Rain = 0
KPD2 270057Z 13012G17KT 23/20 A2982 RMK A01 T02260197  RH  084%=      5-min Rain = 0
KPD2 270058Z 14014KT 23/20 A2983 RMK A01 T02270198  RH  084%=      5-min Rain = 0
KPD2 270059Z 14010KT 23/20 A2983 RMK A01 T02270197  RH  084%=      5-min Rain = 0
KPD2 270100Z 13014KT 23/20 A2983 RMK A01 T02270197  RH  084%=      5-min Rain = 0
KPD2 270101Z 14012KT 23/20 A2984 RMK A01 T02270197  RH  084%=      5-min Rain = 0
KPD2 270102Z 15010G15KT 23/20 A2984 RMK A01 T02270197  RH  084%=      5-min Rain = 0
KPD2 270103Z 15012G17KT 23/20 A2984 RMK A01 T02270197  RH  083%=      5-min Rain = 0
KPD2 270104Z 13009KT 23/20 A2984 RMK A01 T02270197  RH  083%=      5-min Rain = 0
KPD2 270105Z 14011KT 23/20 A2984 RMK A01 T02270197  RH  083%=      5-min Rain = 0
KPD2 270106Z 13011KT 23/20 A2984 RMK A01 T02270197  RH  083%=      5-min Rain = 0
KPD2 270107Z 14012G19KT 23/20 A2984 RMK A01 T02270197  RH  083%=      5-min Rain = 0
KPD2 270108Z 14015KT 23/20 A2984 RMK A01 T02270197  RH  083%=      5-min Rain = 0
KPD2 270109Z 14010KT 23/20 A2984 RMK A01 T02280197  RH  083%=      5-min Rain = 0
KPD2 270110Z 13013KT 23/20 A2985 RMK A01 T02270197  RH  083%=      5-min Rain = 0
KPD2 270111Z 14011KT 23/20 A2985 RMK A01 T02280197  RH  083%=      5-min Rain = 0
KPD2 270112Z 14010KT 23/20 A2985 RMK A01 T02280197  RH  083%=      5-min Rain = 0
KPD2 270113Z 15012G17KT 23/20 A2985 RMK A01 T02270197  RH  083%=      5-min Rain = 0
KPD2 270114Z 14010KT 23/20 A2985 RMK A01 T02280197  RH  083%=      5-min Rain = 0
KPD2 270115Z 13009G14KT 23/20 A2985 RMK A01 T02280197  RH  083%=      5-min Rain = 0
KPD2 270116Z 14014KT 23/20 A2985 RMK A01 T02280198  RH  083%=      5-min Rain = 0
KPD2 270117Z 14015G20KT 23/20 A2986 RMK A01 T02280197  RH  083%=      5-min Rain = 0
KPD2 270118Z 14011G16KT 23/20 A2986 RMK A01 T02280196  RH  082%=      5-min Rain = 0
KPD2 270119Z 14009KT 23/20 A2986 RMK A01 T02290197  RH  082%=      5-min Rain = 0
KPD2 270120Z 15010KT 23/20 A2986 RMK A01 T02290198  RH  082%=      5-min Rain = 0
KPD2 270121Z 14009G14KT 23/20 A2986 RMK A01 T02290197  RH  082%=      5-min Rain = 0
KPD2 270122Z 14010KT 23/20 A2986 RMK A01 T02290198  RH  083%=      5-min Rain = 0
KPD2 270123Z 14009KT 23/20 A2986 RMK A01 T02290198  RH  083%=      5-min Rain = 0
KPD2 270124Z 14008KT 23/20 A2986 RMK A01 T02280198  RH  083%=      5-min Rain = 0
KPD2 270125Z 14009KT 23/20 A2986 RMK A01 T02280197  RH  083%=      5-min Rain = 0
KPD2 270126Z 13009KT 23/20 A2987 RMK A01 T02280198  RH  083%=      5-min Rain = 0
KPD2 270127Z 15007KT 23/20 A2987 RMK A01 T02280198  RH  083%=      5-min Rain = 0
KPD2 270128Z 14008KT 23/20 A2987 RMK A01 T02270198  RH  083%=      5-min Rain = 0
KPD2 270129Z 15007KT 23/20 A2987 RMK A01 T02280198  RH  083%=      5-min Rain = 0
KPD2 270130Z 13009KT 23/20 A2988 RMK A01 T02270198  RH  083%=      5-min Rain = 0
KPD2 270131Z 13010G15KT 23/20 A2988 RMK A01 T02270198  RH  083%=      5-min Rain = 0
KPD2 270132Z 14010KT 23/20 A2988 RMK A01 T02270197  RH  083%=      5-min Rain = 0
KPD2 270133Z 14011KT 23/20 A2988 RMK A01 T02270197  RH  083%=      5-min Rain = 0
KPD2 270134Z 13012G19KT 23/20 A2987 RMK A01 T02270197  RH  083%=      5-min Rain = 0
KPD2 270135Z 14013KT 23/20 A2987 RMK A01 T02270197  RH  083%=      5-min Rain = 0
KPD2 270136Z 14010G15KT 23/20 A2987 RMK A01 T02270197  RH  083%=      5-min Rain = 0
KPD2 270137Z 14011KT 23/20 A2987 RMK A01 T02280197  RH  083%=      5-min Rain = 0
KPD2 270138Z 14010KT 23/20 A2987 RMK A01 T02280197  RH  083%=      5-min Rain = 0
KPD2 270139Z 13012KT 23/20 A2987 RMK A01 T02280197  RH  083%=      5-min Rain = 0
KPD2 270140Z 14010KT 23/20 A2987 RMK A01 T02280197  RH  083%=      5-min Rain = 0
KPD2 270141Z 14014G19KT 23/20 A2987 RMK A01 T02280197  RH  083%=      5-min Rain = 0
KPD2 270142Z 14017G23KT 23/20 A2987 RMK A01 T02280197  RH  082%=      5-min Rain = 0
KPD2 270143Z 14011KT 23/20 A2987 RMK A01 T02280196  RH  082%=      5-min Rain = 0
KPD2 270144Z 14010KT 23/20 A2987 RMK A01 T02280197  RH  082%=      5-min Rain = 0
KPD2 270145Z 13014KT 23/20 A2987 RMK A01 T02280197  RH  083%=      5-min Rain = 0
KPD2 270146Z 15012G18KT 23/20 A2987 RMK A01 T02280197  RH  083%=      5-min Rain = 0
KPD2 270147Z 14008KT 23/20 A2987 RMK A01 T02280197  RH  083%=      5-min Rain = 0
KPD2 270148Z 14010KT 23/20 A2987 RMK A01 T02270197  RH  083%=      5-min Rain = 0
KPD2 270149Z 14009KT 23/20 A2987 RMK A01 T02270197  RH  083%=      5-min Rain = 0
KPD2 270150Z 13008KT 23/20 A2987 RMK A01 T02270197  RH  083%=      5-min Rain = 0
KPD2 270151Z 12011G16KT 23/20 A2987 RMK A01 T02260197  RH  084%=      5-min Rain = 0
KPD2 270152Z 13009KT 23/20 A2987 RMK A01 T02260197  RH  084%=      5-min Rain = 0
KPD2 270153Z 13010KT 23/20 A2987 RMK A01 T02260197  RH  084%=      5-min Rain = 0
KPD2 270154Z 13009KT 23/20 A2986 RMK A01 T02250197  RH  084%=      5-min Rain = 0
KPD2 270155Z 13010KT 23/20 A2987 RMK A01 T02250197  RH  084%=      5-min Rain = 0
KPD2 270156Z 14011KT 23/20 A2987 RMK A01 T02250197  RH  084%=      5-min Rain = 0
KPD2 270157Z 14009KT 23/20 A2987 RMK A01 T02250197  RH  084%=      5-min Rain = 0
KPD2 270158Z 12010KT 23/20 A2987 RMK A01 T02250197  RH  084%=      5-min Rain = 0
KPD2 270159Z 13010KT 23/20 A2987 RMK A01 T02250197  RH  084%=      5-min Rain = 0
KPD2 270200Z 14008G13KT 23/20 A2987 RMK A01 T02250197  RH  084%=      5-min Rain = 0
KPD2 270201Z 13008KT 23/20 A2987 RMK A01 T02250197  RH  084%=      5-min Rain = 0
KPD2 270202Z 14009KT 23/20 A2986 RMK A01 T02250197  RH  084%=      5-min Rain = 0
KPD2 270203Z 13011KT 23/20 A2986 RMK A01 T02250197  RH  084%=      5-min Rain = 0
KPD2 270204Z 14010KT 23/20 A2986 RMK A01 T02250197  RH  084%=      5-min Rain = 0
KPD2 270205Z 13012G17KT 23/20 A2986 RMK A01 T02250197  RH  084%=      5-min Rain = 0
KPD2 270206Z 14010KT 23/20 A2986 RMK A01 T02250197  RH  084%=      5-min Rain = 0
KPD2 270207Z 13010KT 23/20 A2986 RMK A01 T02250197  RH  084%=      5-min Rain = 0
KPD2 270208Z 14008G13KT 23/20 A2987 RMK A01 T02250197  RH  084%=      5-min Rain = 0
KPD2 270209Z 13009KT 23/20 A2987 RMK A01 T02250197  RH  084%=      5-min Rain = 0
KPD2 270210Z 13010KT 23/20 A2987 RMK A01 T02250197  RH  084%=      5-min Rain = 0
KPD2 270211Z 12009G14KT 23/20 A2987 RMK A01 T02250197  RH  084%=      5-min Rain = 0
KPD2 270212Z 14010KT 23/20 A2987 RMK A01 T02250197  RH  084%=      5-min Rain = 0
KPD2 270213Z 14009KT 23/20 A2988 RMK A01 T02250197  RH  084%=      5-min Rain = 0
KPD2 270214Z 13009KT 23/20 A2988 RMK A01 T02250197  RH  084%=      5-min Rain = 0
KPD2 270215Z 14009KT 23/20 A2988 RMK A01 T02250197  RH  084%=      5-min Rain = 0
KPD2 270216Z 14007KT 23/20 A2988 RMK A01 T02250197  RH  084%=      5-min Rain = 0
KPD2 270217Z 14007KT 23/20 A2989 RMK A01 T02250197  RH  084%=      5-min Rain = 0
KPD2 270218Z 14007KT 23/20 A2989 RMK A01 T02250198  RH  084%=      5-min Rain = 0
KPD2 270219Z 14008KT 23/20 A2989 RMK A01 T02250198  RH  085%=      5-min Rain = 0
KPD2 270220Z 14009KT 23/20 A299 RMK A01 T02250198  RH  085%=      5-min Rain = 0
KPD2 270221Z 15008KT 23/20 A299 RMK A01 T02250198  RH  085%=      5-min Rain = 0
KPD2 270222Z 15008KT 23/20 A299 RMK A01 T02250197  RH  084%=      5-min Rain = 0
KPD2 270223Z 15008KT 23/20 A299 RMK A01 T02260197  RH  084%=      5-min Rain = 0
KPD2 270224Z 16005KT 23/20 A2991 RMK A01 T02270197  RH  084%=      5-min Rain = 0
KPD2 270225Z 15005KT 23/20 A2991 RMK A01 T02270197  RH  083%=      5-min Rain = 0
KPD2 270226Z 15009G14KT 23/20 A2991 RMK A01 T02270197  RH  083%=      5-min Rain = 0
KPD2 270227Z 16007KT 23/20 A2991 RMK A01 T02270197  RH  083%=      5-min Rain = 0
KPD2 270228Z 12006KT 23/20 A299 RMK A01 T02280197  RH  083%=      5-min Rain = 0
KPD2 270229Z 12006KT 23/20 A299 RMK A01 T02280197  RH  083%=      5-min Rain = 0
KPD2 270230Z 14007KT 23/20 A299 RMK A01 T02280198  RH  083%=      5-min Rain = 0
KPD2 270231Z 15004KT 23/20 A299 RMK A01 T02280198  RH  083%=      5-min Rain = 0
KPD2 270232Z 14004KT 23/20 A299 RMK A01 T02280198  RH  083%=      5-min Rain = 0
KPD2 270233Z 13003KT 23/20 A299 RMK A01 T02280198  RH  083%=      5-min Rain = 0
KPD2 270234Z 11004KT 23/20 A299 RMK A01 T02280199  RH  084%=      5-min Rain = 0
KPD2 270235Z 12004KT 23/20 A299 RMK A01 T02270201  RH  085%=      5-min Rain = 0
KPD2 270236Z 13002KT 23/20 A299 RMK A01 T02270200  RH  085%=      5-min Rain = 0
KPD2 270237Z 11004KT 23/20 A299 RMK A01 T02260200  RH  085%=      5-min Rain = 0
KPD2 270238Z 13004KT 23/20 A299 RMK A01 T02250201  RH  086%=      5-min Rain = 0
KPD2 270239Z 12004KT 23/20 A2991 RMK A01 T02250200  RH  086%=      5-min Rain = 0
KPD2 270240Z 12003KT 22/20 A2991 RMK A01 T02240200  RH  086%=      5-min Rain = 0
KPD2 270241Z 13004KT 22/20 A2991 RMK A01 T02240200  RH  086%=      5-min Rain = 0
KPD2 270242Z 11005KT 22/20 A2991 RMK A01 T02230200  RH  087%=      5-min Rain = 0
KPD2 270243Z 12003KT 22/20 A2991 RMK A01 T02230200  RH  087%=      5-min Rain = 0
KPD2 270244Z 11003KT 22/20 A2992 RMK A01 T02230201  RH  087%=      5-min Rain = 0
KPD2 270245Z 13005KT 22/20 A2992 RMK A01 T02220201  RH  088%=      5-min Rain = 0
KPD2 270246Z 12004KT 22/20 A2992 RMK A01 T02220199  RH  086%=      5-min Rain = 0
KPD2 270247Z 12004KT 22/20 A2991 RMK A01 T02230199  RH  086%=      5-min Rain = 0
KPD2 270248Z 12005KT 22/20 A2991 RMK A01 T02240200  RH  086%=      5-min Rain = 0
KPD2 270249Z 11003KT 22/20 A2991 RMK A01 T02240200  RH  087%=      5-min Rain = 0
KPD2 270250Z 15004KT 22/20 A2991 RMK A01 T02240201  RH  087%=      5-min Rain = 0
KPD2 270251Z 18005KT 22/20 A2992 RMK A01 T02240200  RH  086%=      5-min Rain = 0
KPD2 270252Z 17005KT 22/20 A2992 RMK A01 T02240201  RH  087%=      5-min Rain = 0
KPD2 270253Z 16003KT 22/20 A2991 RMK A01 T02230201  RH  087%=      5-min Rain = 0
KPD2 270254Z 15004KT 22/20 A2991 RMK A01 T02230201  RH  087%=      5-min Rain = 0
KPD2 270255Z 17003KT 22/20 A2992 RMK A01 T02230201  RH  087%=      5-min Rain = 0
KPD2 270256Z 15002KT 22/20 A2992 RMK A01 T02230201  RH  088%=      5-min Rain = 0.01
KPD2 270257Z 11002KT 22/20 A2992 RMK A01 T02220201  RH  088%=      5-min Rain = 0
KPD2 270258Z 07005KT 22/20 A299 RMK A01 T02220202  RH  088%=      5-min Rain = 0
KPD2 270259Z 06004KT 22/20 A2989 RMK A01 T02210201  RH  088%=      5-min Rain = 0
KPD2 270300Z 07003KT 22/20 A299 RMK A01 T02210200  RH  088%=      5-min Rain = 0
KPD2 270301Z 13002KT 22/20 A2991 RMK A01 T02210201  RH  088%=      5-min Rain = 0
KPD2 270302Z 13003KT 22/20 A2991 RMK A01 T02210201  RH  089%=      5-min Rain = 0
KPD2 270303Z 13002KT 22/20 A2991 RMK A01 T02200201  RH  089%=      5-min Rain = 0
KPD2 270304Z 12004KT 22/20 A2992 RMK A01 T02210202  RH  089%=      5-min Rain = 0
KPD2 270305Z 13005KT 22/20 A2992 RMK A01 T02200201  RH  089%=      5-min Rain = 0
KPD2 270306Z 15005KT 22/20 A2992 RMK A01 T02200202  RH  089%=      5-min Rain = 0
KPD2 270307Z 13004KT 22/20 A2992 RMK A01 T02200201  RH  089%=      5-min Rain = 0
KPD2 270308Z 14005KT 22/20 A2992 RMK A01 T02200201  RH  089%=      5-min Rain = 0
KPD2 270309Z 15005KT 22/20 A2992 RMK A01 T02190201  RH  089%=      5-min Rain = 0
KPD2 270310Z 12003KT 22/20 A2992 RMK A01 T02200200  RH  089%=      5-min Rain = 0
KPD2 270311Z 11003KT 22/20 A2992 RMK A01 T02200201  RH  089%=      5-min Rain = 0
KPD2 270312Z 11002KT 22/20 A2992 RMK A01 T02200201  RH  089%=      5-min Rain = 0
KPD2 270313Z 09004KT 22/20 A2992 RMK A01 T02200201  RH  089%=      5-min Rain = 0
KPD2 270314Z 10003KT 22/20 A2992 RMK A01 T02200201  RH  089%=      5-min Rain = 0
KPD2 270315Z 10002KT 22/20 A2992 RMK A01 T02200201  RH  089%=      5-min Rain = 0
KPD2 270316Z 12001KT 22/20 A2993 RMK A01 T02200201  RH  089%=      5-min Rain = 0
KPD2 270317Z 15001KT 22/20 A2993 RMK A01 T02190201  RH  089%=      5-min Rain = 0
KPD2 270318Z 17004KT 22/20 A2993 RMK A01 T02190202  RH  090%=      5-min Rain = 0
KPD2 270319Z 15005KT 22/20 A2993 RMK A01 T02190202  RH  090%=      5-min Rain = 0.01
KPD2 270320Z 15006KT 22/20 A2993 RMK A01 T02190202  RH  090%=      5-min Rain = 0
KPD2 270321Z 15012G22KT 22/20 A2994 RMK A01 T02180203  RH  091%=      5-min Rain = 0.01
KPD2 270322Z 15023G29KT 22/20 A2994 RMK A01 T02160195  RH  088%=      5-min Rain = 0.04
KPD2 270323Z 14013G20KT 21/18 A2994 RMK A01 T02090178  RH  083%=      5-min Rain = 0.05
KPD2 270324Z 13006G11KT 20/17 A2993 RMK A01 T02000166  RH  080%=      5-min Rain = 0.04
KPD2 270325Z 17005G13KT 20/16 A2992 RMK A01 T01970164  RH  081%=      5-min Rain = 0.02
KPD2 270326Z 15009KT 20/16 A2992 RMK A01 T01970161  RH  080%=      5-min Rain = 0.03
KPD2 270327Z 13005G10KT 20/16 A2991 RMK A01 T01970164  RH  081%=      5-min Rain = 0.01
KPD2 270328Z 18006KT 20/17 A299 RMK A01 T01980172  RH  085%=      5-min Rain = 0.01
KPD2 270329Z 17005KT 20/18 A299 RMK A01 T02000179  RH  087%=      5-min Rain = 0
KPD2 270330Z 15005KT 20/18 A299 RMK A01 T02040180  RH  086%=      5-min Rain = 0.01
KPD2 270331Z 16007KT 21/19 A2991 RMK A01 T02050185  RH  088%=      5-min Rain = 0
KPD2 270332Z 16004KT 21/19 A2991 RMK A01 T02060189  RH  090%=      5-min Rain = 0
KPD2 270333Z 13005KT 21/19 A299 RMK A01 T02070191  RH  091%=      5-min Rain = 0
KPD2 270334Z 14006KT 21/19 A299 RMK A01 T02070192  RH  091%=      5-min Rain = 0
KPD2 270335Z 13005KT 21/19 A299 RMK A01 T02060192  RH  092%=      5-min Rain = 0.01
KPD2 270336Z 12005KT 21/19 A299 RMK A01 T02060193  RH  092%=      5-min Rain = 0
KPD2 270337Z 12005KT 21/19 A2989 RMK A01 T02060194  RH  093%=      5-min Rain = 0
KPD2 270338Z 11005KT 21/20 A2989 RMK A01 T02060195  RH  093%=      5-min Rain = 0
KPD2 270339Z 11007KT 21/20 A2989 RMK A01 T02050195  RH  094%=      5-min Rain = 0
KPD2 270340Z 11005KT 21/20 A2989 RMK A01 T02050195  RH  094%=      5-min Rain = 0
KPD2 270341Z 12006KT 21/20 A2989 RMK A01 T02050196  RH  094%=      5-min Rain = 0
KPD2 270342Z 11006KT 21/20 A2989 RMK A01 T02050196  RH  094%=      5-min Rain = 0
KPD2 270343Z 11006KT 21/20 A2988 RMK A01 T02050196  RH  094%=      5-min Rain = 0
KPD2 270344Z 12006KT 21/20 A2988 RMK A01 T02050196  RH  094%=      5-min Rain = 0
KPD2 270345Z 10004KT 21/20 A2988 RMK A01 T02050196  RH  094%=      5-min Rain = 0
KPD2 270346Z 10006KT 20/20 A2987 RMK A01 T02040195  RH  094%=      5-min Rain = 0
KPD2 270347Z 10006KT 20/20 A2987 RMK A01 T02040196  RH  095%=      5-min Rain = 0
KPD2 270348Z 11007KT 20/20 A2987 RMK A01 T02040196  RH  095%=      5-min Rain = 0
KPD2 270349Z 11006KT 21/20 A2987 RMK A01 T02050196  RH  095%=      5-min Rain = 0
KPD2 270350Z 10007KT 21/20 A2987 RMK A01 T02060196  RH  094%=      5-min Rain = 0
KPD2 270351Z 12007KT 21/20 A2987 RMK A01 T02060196  RH  094%=      5-min Rain = 0
KPD2 270352Z 11005KT 21/20 A2987 RMK A01 T02060195  RH  094%=      5-min Rain = 0
KPD2 270353Z 11005KT 21/20 A2987 RMK A01 T02060196  RH  094%=      5-min Rain = 0
KPD2 270354Z 11006KT 21/20 A2987 RMK A01 T02060196  RH  094%=      5-min Rain = 0
KPD2 270355Z 12005G10KT 21/20 A2987 RMK A01 T02060196  RH  094%=      5-min Rain = 0
KPD2 270356Z 14004KT 21/20 A2987 RMK A01 T02060196  RH  094%=      5-min Rain = 0
KPD2 270357Z 14005KT 21/20 A2987 RMK A01 T02060196  RH  094%=      5-min Rain = 0
KPD2 270358Z 15006KT 21/20 A2988 RMK A01 T02050196  RH  094%=      5-min Rain = 0
KPD2 270359Z 16007KT 20/19 A2988 RMK A01 T02040194  RH  094%=      5-min Rain = 0
KPD2 270400Z 15007KT 20/19 A2988 RMK A01 T02020192  RH  094%=      5-min Rain = 0
KPD2 270401Z 14006KT 20/19 A2987 RMK A01 T02000191  RH  094%=      5-min Rain = 0
KPD2 270402Z 13007KT 20/19 A2986 RMK A01 T02000191  RH  095%=      5-min Rain = 0
KPD2 270403Z 12005KT 20/19 A2986 RMK A01 T01990191  RH  095%=      5-min Rain = 0
KPD2 270404Z 12006KT 20/19 A2986 RMK A01 T01990192  RH  096%=      5-min Rain = 0
KPD2 270405Z 14007KT 20/19 A2986 RMK A01 T01990192  RH  096%=      5-min Rain = 0
KPD2 270406Z 13008KT 20/19 A2986 RMK A01 T01990192  RH  096%=      5-min Rain = 0
KPD2 270407Z 14006KT 20/19 A2986 RMK A01 T01990193  RH  096%=      5-min Rain = 0
KPD2 270408Z 14006KT 20/19 A2986 RMK A01 T02000194  RH  096%=      5-min Rain = 0
KPD2 270409Z 15006KT 20/19 A2987 RMK A01 T02000194  RH  096%=      5-min Rain = 0
KPD2 270410Z 14006KT 20/19 A2987 RMK A01 T02000194  RH  096%=      5-min Rain = 0
KPD2 270411Z 15006KT 20/20 A2987 RMK A01 T02000195  RH  096%=      5-min Rain = 0
KPD2 270412Z 14006KT 20/20 A2987 RMK A01 T02010195  RH  096%=      5-min Rain = 0
KPD2 270413Z 14006KT 20/20 A2988 RMK A01 T02010196  RH  096%=      5-min Rain = 0
KPD2 270414Z 14006KT 20/20 A2987 RMK A01 T02020196  RH  096%=      5-min Rain = 0
KPD2 270415Z 14007KT 20/20 A2987 RMK A01 T02020196  RH  096%=      5-min Rain = 0
KPD2 270416Z 13006KT 20/20 A2987 RMK A01 T02020196  RH  096%=      5-min Rain = 0
KPD2 270417Z 15009KT 20/20 A2987 RMK A01 T02030196  RH  096%=      5-min Rain = 0
KPD2 270418Z 14008KT 20/20 A2987 RMK A01 T02040196  RH  095%=      5-min Rain = 0
KPD2 270419Z 15008KT 21/20 A2987 RMK A01 T02050196  RH  094%=      5-min Rain = 0
KPD2 270420Z 15008KT 21/20 A2987 RMK A01 T02060196  RH  094%=      5-min Rain = 0
KPD2 270421Z 14007KT 21/20 A2986 RMK A01 T02080196  RH  093%=      5-min Rain = 0
KPD2 270422Z 14007KT 21/20 A2986 RMK A01 T02080196  RH  093%=      5-min Rain = 0
KPD2 270423Z 15006KT 21/20 A2987 RMK A01 T02080196  RH  093%=      5-min Rain = 0
KPD2 270424Z 15006KT 21/20 A2987 RMK A01 T02080196  RH  093%=      5-min Rain = 0
KPD2 270425Z 15007KT 21/20 A2987 RMK A01 T02080196  RH  093%=      5-min Rain = 0
KPD2 270426Z 14005KT 21/20 A2987 RMK A01 T02080196  RH  093%=      5-min Rain = 0
KPD2 270427Z 15009G14KT 21/20 A2987 RMK A01 T02080196  RH  093%=      5-min Rain = 0
KPD2 270428Z 13008KT 21/20 A2988 RMK A01 T02080196  RH  093%=      5-min Rain = 0
KPD2 270429Z 13008KT 21/20 A2988 RMK A01 T02090196  RH  092%=      5-min Rain = 0
KPD2 270430Z 13008KT 21/20 A2988 RMK A01 T02090196  RH  092%=      5-min Rain = 0
KPD2 270431Z 13009KT 21/20 A2988 RMK A01 T02090196  RH  092%=      5-min Rain = 0
KPD2 270432Z 14008KT 21/20 A2987 RMK A01 T02090196  RH  092%=      5-min Rain = 0
KPD2 270433Z 13010KT 21/20 A2987 RMK A01 T02090196  RH  092%=      5-min Rain = 0
KPD2 270434Z 13010KT 21/20 A2986 RMK A01 T02090196  RH  092%=      5-min Rain = 0
KPD2 270435Z 13010KT 21/20 A2986 RMK A01 T02090195  RH  092%=      5-min Rain = 0
KPD2 270436Z 12007KT 21/20 A2986 RMK A01 T02100196  RH  091%=      5-min Rain = 0
KPD2 270437Z 12009KT 21/20 A2986 RMK A01 T02100196  RH  091%=      5-min Rain = 0
KPD2 270438Z 12010KT 21/20 A2986 RMK A01 T02100196  RH  091%=      5-min Rain = 0
KPD2 270439Z 11009KT 21/20 A2986 RMK A01 T02100196  RH  091%=      5-min Rain = 0
KPD2 270440Z 13010KT 21/20 A2986 RMK A01 T02100196  RH  091%=      5-min Rain = 0
KPD2 270441Z 13007G12KT 21/20 A2986 RMK A01 T02100195  RH  091%=      5-min Rain = 0
KPD2 270442Z 14009KT 21/20 A2986 RMK A01 T02100195  RH  091%=      5-min Rain = 0
KPD2 270443Z 13007KT 21/20 A2986 RMK A01 T02110195  RH  091%=      5-min Rain = 0
KPD2 270444Z 12006KT 21/19 A2986 RMK A01 T02110194  RH  090%=      5-min Rain = 0
KPD2 270445Z 11006KT 21/20 A2986 RMK A01 T02110195  RH  090%=      5-min Rain = 0
KPD2 270446Z 10007G12KT 21/20 A2985 RMK A01 T02120195  RH  090%=      5-min Rain = 0
KPD2 270447Z 12009G15KT 21/20 A2985 RMK A01 T02110195  RH  090%=      5-min Rain = 0
KPD2 270448Z 13010KT 21/19 A2985 RMK A01 T02110194  RH  090%=      5-min Rain = 0
KPD2 270449Z 12008KT 21/19 A2986 RMK A01 T02110194  RH  090%=      5-min Rain = 0
KPD2 270450Z 11010KT 21/19 A2986 RMK A01 T02110194  RH  090%=      5-min Rain = 0
KPD2 270451Z 14010KT 21/19 A2986 RMK A01 T02110194  RH  090%=      5-min Rain = 0
KPD2 270452Z 14009KT 21/19 A2986 RMK A01 T02110193  RH  089%=      5-min Rain = 0
KPD2 270453Z 13009KT 21/19 A2986 RMK A01 T02130194  RH  089%=      5-min Rain = 0
KPD2 270454Z 12006KT 21/19 A2986 RMK A01 T02130194  RH  089%=      5-min Rain = 0
KPD2 270455Z 13008G16KT 21/19 A2986 RMK A01 T02120194  RH  089%=      5-min Rain = 0
KPD2 270456Z 14011G17KT 21/19 A2986 RMK A01 T02110193  RH  089%=      5-min Rain = 0
KPD2 270457Z 14009KT 21/19 A2987 RMK A01 T02120192  RH  089%=      5-min Rain = 0
KPD2 270458Z 14009KT 21/19 A2987 RMK A01 T02120192  RH  088%=      5-min Rain = 0
KPD2 270459Z 14008KT 21/19 A2987 RMK A01 T02120192  RH  088%=      5-min Rain = 0

Page generated in 0.1236 seconds.